Observation data for Lake Alan Henry on 04/23/2019      Previous  Date  Next       Current Mesonet Observations  Soil Data  Daily Summary Page  Observations in Plain Language
KAHS 230500Z 30003KT 16/14 A30 RMK A01 T01610143  RH  089%=      5-min Rain = 0
KAHS 230501Z 27003KT 16/14 A30 RMK A01 T01620143  RH  088%=      5-min Rain = 0
KAHS 230502Z 23004KT 16/14 A30 RMK A01 T01620143  RH  088%=      5-min Rain = 0
KAHS 230503Z 22005KT 16/14 A30 RMK A01 T01620143  RH  088%=      5-min Rain = 0
KAHS 230504Z 22005KT 16/14 A30 RMK A01 T01620143  RH  089%=      5-min Rain = 0
KAHS 230505Z 23005KT 16/14 A30 RMK A01 T01610143  RH  089%=      5-min Rain = 0
KAHS 230506Z 25003KT 16/14 A30 RMK A01 T01620144  RH  089%=      5-min Rain = 0
KAHS 230507Z 35005KT 16/14 A30 RMK A01 T01630144  RH  089%=      5-min Rain = 0
KAHS 230508Z 35004KT 16/15 A30 RMK A01 T01630146  RH  089%=      5-min Rain = 0
KAHS 230509Z 02005KT 16/14 A30 RMK A01 T01620144  RH  089%=      5-min Rain = 0
KAHS 230510Z 05004KT 16/14 A30 RMK A01 T01620142  RH  088%=      5-min Rain = 0
KAHS 230511Z 06004KT 16/14 A30 RMK A01 T01620142  RH  088%=      5-min Rain = 0
KAHS 230512Z 06005KT 16/14 A3001 RMK A01 T01610141  RH  088%=      5-min Rain = 0
KAHS 230513Z 06003KT 16/14 A3001 RMK A01 T01610141  RH  088%=      5-min Rain = 0
KAHS 230514Z 04003KT 16/14 A3001 RMK A01 T01610141  RH  088%=      5-min Rain = 0
KAHS 230515Z 01002KT 16/14 A3001 RMK A01 T01610140  RH  087%=      5-min Rain = 0
KAHS 230516Z 02002KT 16/14 A3001 RMK A01 T01610140  RH  087%=      5-min Rain = 0
KAHS 230517Z 01002KT 16/14 A30 RMK A01 T01610140  RH  088%=      5-min Rain = 0
KAHS 230518Z 00004KT 16/14 A30 RMK A01 T01610141  RH  088%=      5-min Rain = 0
KAHS 230519Z 36004KT 16/14 A3001 RMK A01 T01610141  RH  088%=      5-min Rain = 0
KAHS 230520Z 02003KT 16/14 A3001 RMK A01 T01610141  RH  088%=      5-min Rain = 0
KAHS 230521Z 02003KT 16/14 A3001 RMK A01 T01610141  RH  088%=      5-min Rain = 0
KAHS 230522Z 01004KT 16/14 A3001 RMK A01 T01600140  RH  087%=      5-min Rain = 0
KAHS 230523Z 01004KT 16/14 A3001 RMK A01 T01610139  RH  087%=      5-min Rain = 0
KAHS 230524Z 02005KT 16/14 A3001 RMK A01 T01610140  RH  087%=      5-min Rain = 0
KAHS 230525Z 03006KT 16/14 A3001 RMK A01 T01610140  RH  087%=      5-min Rain = 0
KAHS 230526Z 03005KT 16/14 A3001 RMK A01 T01600139  RH  087%=      5-min Rain = 0
KAHS 230527Z 02004KT 16/14 A3001 RMK A01 T01600139  RH  087%=      5-min Rain = 0
KAHS 230528Z 02004KT 16/14 A30 RMK A01 T01600139  RH  087%=      5-min Rain = 0
KAHS 230529Z 01004KT 16/14 A30 RMK A01 T01590139  RH  087%=      5-min Rain = 0
KAHS 230530Z 02004KT 16/14 A30 RMK A01 T01590139  RH  088%=      5-min Rain = 0
KAHS 230531Z 02003KT 16/14 A30 RMK A01 T01590139  RH  088%=      5-min Rain = 0
KAHS 230532Z 03003KT 16/14 A30 RMK A01 T01590139  RH  088%=      5-min Rain = 0
KAHS 230533Z 03003KT 16/14 A30 RMK A01 T01590140  RH  088%=      5-min Rain = 0
KAHS 230534Z 04003KT 16/14 A30 RMK A01 T01590140  RH  089%=      5-min Rain = 0
KAHS 230535Z 04003KT 16/14 A30 RMK A01 T01590141  RH  089%=      5-min Rain = 0
KAHS 230536Z 03003KT 16/14 A30 RMK A01 T01580141  RH  089%=      5-min Rain = 0
KAHS 230537Z 04003KT 16/14 A30 RMK A01 T01580141  RH  090%=      5-min Rain = 0
KAHS 230538Z 04003KT 16/14 A30 RMK A01 T01580141  RH  090%=      5-min Rain = 0
KAHS 230539Z 04003KT 16/14 A30 RMK A01 T01570141  RH  090%=      5-min Rain = 0
KAHS 230540Z 04003KT 16/14 A30 RMK A01 T01570142  RH  090%=      5-min Rain = 0
KAHS 230541Z 04003KT 16/14 A30 RMK A01 T01570142  RH  090%=      5-min Rain = 0
KAHS 230542Z 04003KT 16/14 A30 RMK A01 T01570142  RH  091%=      5-min Rain = 0
KAHS 230543Z 05003KT 16/14 A30 RMK A01 T01570142  RH  091%=      5-min Rain = 0
KAHS 230544Z 06004KT 16/14 A30 RMK A01 T01570143  RH  091%=      5-min Rain = 0
KAHS 230545Z 06004KT 16/14 A30 RMK A01 T01570143  RH  091%=      5-min Rain = 0
KAHS 230546Z 05005KT 16/14 A30 RMK A01 T01570143  RH  091%=      5-min Rain = 0
KAHS 230547Z 05006KT 16/14 A2999 RMK A01 T01570142  RH  091%=      5-min Rain = 0
KAHS 230548Z 04005KT 16/14 A2999 RMK A01 T01570142  RH  091%=      5-min Rain = 0
KAHS 230549Z 05005KT 16/14 A2999 RMK A01 T01570142  RH  091%=      5-min Rain = 0
KAHS 230550Z 05005KT 16/14 A2999 RMK A01 T01570142  RH  091%=      5-min Rain = 0
KAHS 230551Z 04005KT 16/14 A2999 RMK A01 T01570143  RH  091%=      5-min Rain = 0
KAHS 230552Z 04004KT 16/14 A2999 RMK A01 T01570143  RH  091%=      5-min Rain = 0
KAHS 230553Z 04004KT 16/14 A2999 RMK A01 T01570143  RH  091%=      5-min Rain = 0
KAHS 230554Z 04004KT 16/14 A2999 RMK A01 T01580143  RH  091%=      5-min Rain = 0
KAHS 230555Z 04004KT 16/14 A2999 RMK A01 T01580144  RH  091%=      5-min Rain = 0
KAHS 230556Z 04004KT 16/14 A2999 RMK A01 T01580144  RH  091%=      5-min Rain = 0
KAHS 230557Z 04004KT 16/14 A2999 RMK A01 T01580144  RH  091%=      5-min Rain = 0
KAHS 230558Z 04004KT 16/14 A2999 RMK A01 T01580144  RH  091%=      5-min Rain = 0
KAHS 230559Z 04004KT 16/14 A2999 RMK A01 T01590144  RH  091%=      5-min Rain = 0
KAHS 230600Z 04003KT 16/15 A2999 RMK A01 T01590145  RH  091%=      5-min Rain = 0
KAHS 230601Z 04004KT 16/15 A2999 RMK A01 T01590145  RH  091%=      5-min Rain = 0
KAHS 230602Z 04004KT 16/15 A2999 RMK A01 T01590145  RH  091%=      5-min Rain = 0
KAHS 230603Z 04005KT 16/15 A2999 RMK A01 T01590145  RH  091%=      5-min Rain = 0
KAHS 230604Z 04005KT 16/15 A2999 RMK A01 T01590145  RH  091%=      5-min Rain = 0
KAHS 230605Z 04005KT 16/15 A2999 RMK A01 T01590145  RH  091%=      5-min Rain = 0
KAHS 230606Z 03004KT 16/15 A2999 RMK A01 T01590146  RH  091%=      5-min Rain = 0
KAHS 230607Z 04004KT 16/15 A2999 RMK A01 T01590146  RH  092%=      5-min Rain = 0
KAHS 230608Z 04004KT 16/15 A2999 RMK A01 T01590145  RH  091%=      5-min Rain = 0
KAHS 230609Z 04004KT 16/15 A2999 RMK A01 T01590146  RH  091%=      5-min Rain = 0
KAHS 230610Z 03004KT 16/15 A2999 RMK A01 T01590146  RH  092%=      5-min Rain = 0
KAHS 230611Z 03005KT 16/15 A2999 RMK A01 T01590146  RH  092%=      5-min Rain = 0
KAHS 230612Z 04006KT 16/15 A2999 RMK A01 T01590146  RH  092%=      5-min Rain = 0
KAHS 230613Z 03005KT 16/15 A2999 RMK A01 T01590147  RH  092%=      5-min Rain = 0
KAHS 230614Z 02005KT 16/15 A2999 RMK A01 T01590147  RH  092%=      5-min Rain = 0
KAHS 230615Z 01004KT 16/15 A2999 RMK A01 T01590147  RH  092%=      5-min Rain = 0
KAHS 230616Z 01004KT 16/15 A2999 RMK A01 T01590147  RH  093%=      5-min Rain = 0
KAHS 230617Z 01004KT 16/15 A2999 RMK A01 T01590147  RH  093%=      5-min Rain = 0
KAHS 230618Z 01003KT 16/15 A2999 RMK A01 T01580147  RH  093%=      5-min Rain = 0
KAHS 230619Z 02003KT 16/15 A2999 RMK A01 T01580147  RH  093%=      5-min Rain = 0
KAHS 230620Z 02003KT 16/15 A2999 RMK A01 T01570146  RH  093%=      5-min Rain = 0
KAHS 230621Z 01004KT 16/15 A2999 RMK A01 T01570147  RH  093%=      5-min Rain = 0
KAHS 230622Z 02004KT 16/15 A2999 RMK A01 T01570146  RH  093%=      5-min Rain = 0
KAHS 230623Z 01005KT 16/15 A2999 RMK A01 T01560146  RH  094%=      5-min Rain = 0
KAHS 230624Z 02007KT 16/15 A2998 RMK A01 T01560146  RH  094%=      5-min Rain = 0
KAHS 230625Z 02007KT 16/15 A2998 RMK A01 T01560147  RH  094%=      5-min Rain = 0
KAHS 230626Z 03006KT 16/15 A2998 RMK A01 T01560147  RH  094%=      5-min Rain = 0
KAHS 230627Z 02007KT 16/15 A2998 RMK A01 T01570147  RH  094%=      5-min Rain = 0
KAHS 230628Z 02007KT 16/15 A2998 RMK A01 T01570148  RH  094%=      5-min Rain = 0
KAHS 230629Z 02007KT 16/15 A2998 RMK A01 T01570148  RH  094%=      5-min Rain = 0
KAHS 230630Z 02008KT 16/15 A2998 RMK A01 T01570148  RH  094%=      5-min Rain = 0
KAHS 230631Z 02007KT 16/15 A2998 RMK A01 T01570148  RH  094%=      5-min Rain = 0
KAHS 230632Z 03006KT 16/15 A2998 RMK A01 T01570148  RH  094%=      5-min Rain = 0
KAHS 230633Z 02006KT 16/15 A2998 RMK A01 T01570148  RH  094%=      5-min Rain = 0
KAHS 230634Z 02006KT 16/15 A2998 RMK A01 T01570148  RH  094%=      5-min Rain = 0
KAHS 230635Z 03006KT 16/15 A2998 RMK A01 T01570148  RH  094%=      5-min Rain = 0
KAHS 230636Z 03006KT 16/15 A2998 RMK A01 T01570148  RH  094%=      5-min Rain = 0
KAHS 230637Z 03006KT 16/15 A2998 RMK A01 T01570148  RH  094%=      5-min Rain = 0
KAHS 230638Z 04006KT 16/15 A2998 RMK A01 T01570148  RH  095%=      5-min Rain = 0
KAHS 230639Z 04006KT 16/15 A2998 RMK A01 T01570148  RH  095%=      5-min Rain = 0
KAHS 230640Z 03006KT 16/15 A2998 RMK A01 T01570148  RH  095%=      5-min Rain = 0
KAHS 230641Z 03006KT 16/15 A2998 RMK A01 T01570148  RH  095%=      5-min Rain = 0
KAHS 230642Z 03007KT 16/15 A2998 RMK A01 T01560148  RH  095%=      5-min Rain = 0
KAHS 230643Z 03006KT 16/15 A2998 RMK A01 T01560148  RH  095%=      5-min Rain = 0
KAHS 230644Z 03005KT 16/15 A2998 RMK A01 T01560148  RH  095%=      5-min Rain = 0
KAHS 230645Z 04005KT 16/15 A2998 RMK A01 T01560148  RH  095%=      5-min Rain = 0
KAHS 230646Z 03006KT 16/15 A2998 RMK A01 T01560148  RH  095%=      5-min Rain = 0
KAHS 230647Z 03007KT 16/15 A2998 RMK A01 T01560148  RH  095%=      5-min Rain = 0
KAHS 230648Z 03009KT 16/15 A2998 RMK A01 T01560148  RH  095%=      5-min Rain = 0
KAHS 230649Z 02007KT 16/15 A2998 RMK A01 T01570149  RH  095%=      5-min Rain = 0
KAHS 230650Z 02008KT 16/15 A2998 RMK A01 T01560148  RH  095%=      5-min Rain = 0
KAHS 230651Z 02008KT 16/15 A2998 RMK A01 T01560148  RH  095%=      5-min Rain = 0
KAHS 230652Z 02009KT 16/15 A2998 RMK A01 T01560148  RH  095%=      5-min Rain = 0
KAHS 230653Z 02008KT 16/15 A2998 RMK A01 T01560148  RH  095%=      5-min Rain = 0
KAHS 230654Z 02007KT 16/15 A2998 RMK A01 T01560148  RH  095%=      5-min Rain = 0
KAHS 230655Z 02008KT 16/15 A2998 RMK A01 T01560148  RH  095%=      5-min Rain = 0
KAHS 230656Z 02009KT 16/15 A2998 RMK A01 T01560148  RH  095%=      5-min Rain = 0
KAHS 230657Z 02009KT 16/15 A2998 RMK A01 T01560148  RH  095%=      5-min Rain = 0
KAHS 230658Z 02008KT 16/15 A2998 RMK A01 T01560148  RH  095%=      5-min Rain = 0
KAHS 230659Z 02006KT 16/15 A2998 RMK A01 T01560148  RH  095%=      5-min Rain = 0
KAHS 230700Z 02006KT 16/15 A2998 RMK A01 T01550148  RH  095%=      5-min Rain = 0
KAHS 230701Z 02007KT 16/15 A2998 RMK A01 T01560148  RH  095%=      5-min Rain = 0
KAHS 230702Z 01007KT 16/15 A2998 RMK A01 T01550148  RH  095%=      5-min Rain = 0
KAHS 230703Z 01006KT 16/15 A2998 RMK A01 T01550148  RH  095%=      5-min Rain = 0
KAHS 230704Z 02008KT 16/15 A2998 RMK A01 T01550147  RH  095%=      5-min Rain = 0
KAHS 230705Z 02007KT 16/15 A2998 RMK A01 T01550147  RH  095%=      5-min Rain = 0
KAHS 230706Z 01006KT 16/15 A2998 RMK A01 T01550148  RH  095%=      5-min Rain = 0
KAHS 230707Z 02006KT 15/15 A2998 RMK A01 T01540147  RH  095%=      5-min Rain = 0
KAHS 230708Z 02006KT 15/15 A2998 RMK A01 T01540148  RH  096%=      5-min Rain = 0
KAHS 230709Z 02006KT 16/15 A2998 RMK A01 T01550148  RH  096%=      5-min Rain = 0
KAHS 230710Z 02008KT 16/15 A2998 RMK A01 T01550148  RH  096%=      5-min Rain = 0
KAHS 230711Z 02007KT 16/15 A2998 RMK A01 T01550148  RH  096%=      5-min Rain = 0
KAHS 230712Z 02005KT 16/15 A2998 RMK A01 T01550148  RH  096%=      5-min Rain = 0
KAHS 230713Z 02006KT 16/15 A2998 RMK A01 T01550148  RH  096%=      5-min Rain = 0
KAHS 230714Z 01007KT 15/15 A2998 RMK A01 T01540148  RH  096%=      5-min Rain = 0
KAHS 230715Z 02007KT 15/15 A2998 RMK A01 T01540148  RH  096%=      5-min Rain = 0
KAHS 230716Z 01007KT 15/15 A2998 RMK A01 T01540148  RH  096%=      5-min Rain = 0
KAHS 230717Z 01009KT 15/15 A2998 RMK A01 T01540148  RH  096%=      5-min Rain = 0
KAHS 230718Z 02009KT 15/15 A2998 RMK A01 T01540148  RH  096%=      5-min Rain = 0
KAHS 230719Z 01010KT 15/15 A2998 RMK A01 T01540148  RH  096%=      5-min Rain = 0
KAHS 230720Z 01009KT 15/15 A2998 RMK A01 T01540148  RH  096%=      5-min Rain = 0
KAHS 230721Z 01008KT 15/15 A2998 RMK A01 T01540148  RH  096%=      5-min Rain = 0
KAHS 230722Z 01006KT 15/15 A2998 RMK A01 T01540148  RH  096%=      5-min Rain = 0
KAHS 230723Z 01010KT 15/15 A2998 RMK A01 T01540148  RH  096%=      5-min Rain = 0
KAHS 230724Z 01008KT 15/15 A2998 RMK A01 T01540147  RH  096%=      5-min Rain = 0
KAHS 230725Z 01008KT 15/15 A2998 RMK A01 T01540147  RH  096%=      5-min Rain = 0
KAHS 230726Z 01007KT 15/15 A2998 RMK A01 T01540147  RH  096%=      5-min Rain = 0
KAHS 230727Z 01009KT 15/15 A2998 RMK A01 T01530147  RH  096%=      5-min Rain = 0
KAHS 230728Z 01007KT 15/15 A2998 RMK A01 T01530147  RH  096%=      5-min Rain = 0
KAHS 230729Z 02007KT 15/15 A2998 RMK A01 T01530147  RH  096%=      5-min Rain = 0
KAHS 230730Z 02008KT 15/15 A2998 RMK A01 T01530147  RH  096%=      5-min Rain = 0
KAHS 230731Z 01007KT 15/15 A2998 RMK A01 T01530147  RH  096%=      5-min Rain = 0
KAHS 230732Z 01007KT 15/15 A2998 RMK A01 T01530147  RH  096%=      5-min Rain = 0
KAHS 230733Z 01009KT 15/15 A2998 RMK A01 T01530146  RH  096%=      5-min Rain = 0
KAHS 230734Z 01009KT 15/15 A2998 RMK A01 T01520146  RH  096%=      5-min Rain = 0
KAHS 230735Z 01007KT 15/15 A2998 RMK A01 T01520145  RH  096%=      5-min Rain = 0
KAHS 230736Z 01006KT 15/15 A2998 RMK A01 T01520145  RH  096%=      5-min Rain = 0
KAHS 230737Z 01006KT 15/15 A2998 RMK A01 T01520145  RH  096%=      5-min Rain = 0
KAHS 230738Z 01008KT 15/15 A2998 RMK A01 T01510145  RH  096%=      5-min Rain = 0
KAHS 230739Z 01006KT 15/15 A2998 RMK A01 T01510145  RH  096%=      5-min Rain = 0
KAHS 230740Z 01007KT 15/15 A2998 RMK A01 T01510145  RH  096%=      5-min Rain = 0
KAHS 230741Z 01007KT 15/15 A2998 RMK A01 T01510145  RH  096%=      5-min Rain = 0
KAHS 230742Z 01008KT 15/15 A2998 RMK A01 T01510145  RH  096%=      5-min Rain = 0
KAHS 230743Z 01007KT 15/15 A2998 RMK A01 T01510145  RH  096%=      5-min Rain = 0
KAHS 230744Z 01008KT 15/15 A2998 RMK A01 T01510145  RH  096%=      5-min Rain = 0
KAHS 230745Z 01007KT 15/15 A2998 RMK A01 T01510145  RH  096%=      5-min Rain = 0
KAHS 230746Z 01006KT 15/15 A2998 RMK A01 T01510145  RH  096%=      5-min Rain = 0
KAHS 230747Z 02008KT 15/15 A2998 RMK A01 T01510145  RH  096%=      5-min Rain = 0
KAHS 230748Z 01008KT 15/15 A2998 RMK A01 T01500145  RH  096%=      5-min Rain = 0
KAHS 230749Z 01008KT 15/14 A2998 RMK A01 T01500144  RH  096%=      5-min Rain = 0
KAHS 230750Z 02007KT 15/14 A2998 RMK A01 T01500144  RH  096%=      5-min Rain = 0
KAHS 230751Z 02007KT 15/14 A2998 RMK A01 T01500144  RH  096%=      5-min Rain = 0
KAHS 230752Z 01007KT 15/14 A2998 RMK A01 T01500144  RH  096%=      5-min Rain = 0
KAHS 230753Z 01007KT 15/14 A2998 RMK A01 T01500144  RH  096%=      5-min Rain = 0
KAHS 230754Z 02006KT 15/14 A2998 RMK A01 T01500144  RH  096%=      5-min Rain = 0
KAHS 230755Z 01005KT 15/14 A2998 RMK A01 T01500144  RH  096%=      5-min Rain = 0
KAHS 230756Z 02005KT 15/14 A2998 RMK A01 T01500144  RH  096%=      5-min Rain = 0
KAHS 230757Z 02006KT 15/14 A2998 RMK A01 T01500144  RH  096%=      5-min Rain = 0
KAHS 230758Z 02006KT 15/14 A2998 RMK A01 T01500144  RH  096%=      5-min Rain = 0
KAHS 230759Z 02006KT 15/14 A2998 RMK A01 T01500144  RH  096%=      5-min Rain = 0
KAHS 230800Z 02006KT 15/14 A2998 RMK A01 T01490144  RH  096%=      5-min Rain = 0
KAHS 230801Z 01006KT 15/14 A2999 RMK A01 T01490143  RH  096%=      5-min Rain = 0
KAHS 230802Z 02004KT 15/14 A2999 RMK A01 T01490143  RH  096%=      5-min Rain = 0
KAHS 230803Z 02004KT 15/14 A2999 RMK A01 T01490143  RH  096%=      5-min Rain = 0
KAHS 230804Z 01005KT 15/14 A2999 RMK A01 T01490143  RH  096%=      5-min Rain = 0
KAHS 230805Z 00006KT 15/14 A2999 RMK A01 T01490143  RH  096%=      5-min Rain = 0
KAHS 230806Z 01006KT 15/14 A2999 RMK A01 T01490143  RH  096%=      5-min Rain = 0
KAHS 230807Z 01004KT 15/14 A2999 RMK A01 T01480142  RH  096%=      5-min Rain = 0
KAHS 230808Z 36004KT 15/14 A2999 RMK A01 T01480142  RH  096%=      5-min Rain = 0
KAHS 230809Z 01006KT 15/14 A2999 RMK A01 T01480142  RH  096%=      5-min Rain = 0
KAHS 230810Z 00006KT 15/14 A2998 RMK A01 T01480142  RH  096%=      5-min Rain = 0
KAHS 230811Z 01006KT 15/14 A2998 RMK A01 T01480142  RH  096%=      5-min Rain = 0
KAHS 230812Z 01008KT 15/14 A2998 RMK A01 T01480142  RH  096%=      5-min Rain = 0
KAHS 230813Z 01006KT 15/14 A2998 RMK A01 T01480141  RH  096%=      5-min Rain = 0
KAHS 230814Z 01008KT 15/14 A2998 RMK A01 T01480141  RH  096%=      5-min Rain = 0
KAHS 230815Z 01008KT 15/14 A2998 RMK A01 T01480141  RH  096%=      5-min Rain = 0
KAHS 230816Z 00008KT 15/14 A2998 RMK A01 T01480141  RH  096%=      5-min Rain = 0
KAHS 230817Z 01010KT 15/14 A2998 RMK A01 T01480141  RH  096%=      5-min Rain = 0
KAHS 230818Z 01009KT 15/14 A2998 RMK A01 T01480141  RH  096%=      5-min Rain = 0
KAHS 230819Z 01008KT 15/14 A2998 RMK A01 T01480141  RH  096%=      5-min Rain = 0
KAHS 230820Z 01007KT 15/14 A2998 RMK A01 T01480141  RH  096%=      5-min Rain = 0
KAHS 230821Z 01008KT 15/14 A2998 RMK A01 T01480141  RH  096%=      5-min Rain = 0
KAHS 230822Z 02008KT 15/14 A2998 RMK A01 T01480141  RH  096%=      5-min Rain = 0
KAHS 230823Z 01008KT 15/14 A2998 RMK A01 T01480141  RH  096%=      5-min Rain = 0
KAHS 230824Z 01008KT 15/14 A2998 RMK A01 T01480141  RH  096%=      5-min Rain = 0
KAHS 230825Z 02008KT 15/14 A2998 RMK A01 T01470140  RH  095%=      5-min Rain = 0
KAHS 230826Z 02007KT 15/14 A2998 RMK A01 T01470140  RH  095%=      5-min Rain = 0
KAHS 230827Z 01007KT 15/14 A2998 RMK A01 T01470140  RH  095%=      5-min Rain = 0
KAHS 230828Z 02007KT 15/14 A2998 RMK A01 T01480140  RH  095%=      5-min Rain = 0
KAHS 230829Z 01008KT 15/14 A2998 RMK A01 T01480140  RH  095%=      5-min Rain = 0
KAHS 230830Z 02006KT 15/14 A2998 RMK A01 T01480140  RH  095%=      5-min Rain = 0
KAHS 230831Z 02007KT 15/14 A2998 RMK A01 T01470140  RH  095%=      5-min Rain = 0
KAHS 230832Z 01007KT 15/14 A2998 RMK A01 T01470140  RH  095%=      5-min Rain = 0
KAHS 230833Z 02007KT 15/14 A2998 RMK A01 T01470140  RH  095%=      5-min Rain = 0
KAHS 230834Z 02007KT 15/14 A2998 RMK A01 T01470140  RH  095%=      5-min Rain = 0
KAHS 230835Z 02006KT 15/14 A2998 RMK A01 T01470140  RH  095%=      5-min Rain = 0
KAHS 230836Z 02007KT 15/14 A2998 RMK A01 T01480140  RH  095%=      5-min Rain = 0
KAHS 230837Z 02007KT 15/14 A2998 RMK A01 T01480140  RH  095%=      5-min Rain = 0
KAHS 230838Z 02006KT 15/14 A2998 RMK A01 T01470140  RH  095%=      5-min Rain = 0
KAHS 230839Z 02006KT 15/14 A2998 RMK A01 T01470140  RH  095%=      5-min Rain = 0
KAHS 230840Z 02006KT 15/14 A2998 RMK A01 T01480140  RH  095%=      5-min Rain = 0
KAHS 230841Z 03008KT 15/14 A2997 RMK A01 T01470140  RH  095%=      5-min Rain = 0
KAHS 230842Z 02009KT 15/14 A2997 RMK A01 T01470140  RH  095%=      5-min Rain = 0
KAHS 230843Z 02007KT 15/14 A2997 RMK A01 T01470140  RH  095%=      5-min Rain = 0
KAHS 230844Z 02008KT 15/14 A2998 RMK A01 T01470139  RH  095%=      5-min Rain = 0
KAHS 230845Z 02009KT 15/14 A2998 RMK A01 T01470139  RH  095%=      5-min Rain = 0
KAHS 230846Z 03006KT 15/14 A2998 RMK A01 T01470139  RH  095%=      5-min Rain = 0
KAHS 230847Z 03007KT 15/14 A2998 RMK A01 T01470139  RH  095%=      5-min Rain = 0
KAHS 230848Z 03007KT 15/14 A2998 RMK A01 T01470139  RH  095%=      5-min Rain = 0
KAHS 230849Z 03005KT 15/14 A2998 RMK A01 T01470139  RH  095%=      5-min Rain = 0
KAHS 230850Z 02005KT 15/14 A2998 RMK A01 T01470139  RH  095%=      5-min Rain = 0
KAHS 230851Z 03005KT 15/14 A2998 RMK A01 T01470139  RH  095%=      5-min Rain = 0
KAHS 230852Z 03004KT 15/14 A2998 RMK A01 T01470139  RH  095%=      5-min Rain = 0
KAHS 230853Z 03005KT 15/14 A2998 RMK A01 T01470140  RH  095%=      5-min Rain = 0
KAHS 230854Z 03005KT 15/14 A2998 RMK A01 T01470140  RH  095%=      5-min Rain = 0
KAHS 230855Z 03005KT 15/14 A2998 RMK A01 T01470140  RH  095%=      5-min Rain = 0
KAHS 230856Z 04005KT 15/14 A2998 RMK A01 T01470140  RH  095%=      5-min Rain = 0
KAHS 230857Z 04004KT 15/14 A2998 RMK A01 T01470139  RH  095%=      5-min Rain = 0
KAHS 230858Z 03004KT 15/14 A2998 RMK A01 T01480140  RH  095%=      5-min Rain = 0
KAHS 230859Z 04004KT 15/14 A2998 RMK A01 T01480140  RH  095%=      5-min Rain = 0
KAHS 230900Z 04004KT 15/14 A2998 RMK A01 T01480140  RH  095%=      5-min Rain = 0
KAHS 230901Z 03005KT 15/14 A2998 RMK A01 T01470140  RH  095%=      5-min Rain = 0
KAHS 230902Z 04005KT 15/14 A2998 RMK A01 T01470139  RH  095%=      5-min Rain = 0
KAHS 230903Z 03006KT 15/14 A2998 RMK A01 T01470139  RH  095%=      5-min Rain = 0
KAHS 230904Z 04006KT 15/14 A2998 RMK A01 T01470139  RH  095%=      5-min Rain = 0
KAHS 230905Z 04006KT 15/14 A2998 RMK A01 T01470139  RH  095%=      5-min Rain = 0
KAHS 230906Z 04005KT 15/14 A2998 RMK A01 T01470139  RH  095%=      5-min Rain = 0
KAHS 230907Z 04004KT 15/14 A2998 RMK A01 T01470139  RH  095%=      5-min Rain = 0
KAHS 230908Z 04005KT 15/14 A2998 RMK A01 T01470139  RH  095%=      5-min Rain = 0
KAHS 230909Z 04005KT 15/14 A2998 RMK A01 T01470139  RH  095%=      5-min Rain = 0
KAHS 230910Z 05004KT 15/14 A2998 RMK A01 T01470139  RH  095%=      5-min Rain = 0
KAHS 230911Z 05005KT 15/14 A2998 RMK A01 T01480140  RH  095%=      5-min Rain = 0
KAHS 230912Z 06006KT 15/14 A2998 RMK A01 T01470139  RH  095%=      5-min Rain = 0
KAHS 230913Z 06005KT 15/14 A2997 RMK A01 T01470139  RH  095%=      5-min Rain = 0
KAHS 230914Z 07006KT 15/14 A2997 RMK A01 T01470139  RH  095%=      5-min Rain = 0
KAHS 230915Z 07006KT 15/14 A2997 RMK A01 T01470139  RH  095%=      5-min Rain = 0
KAHS 230916Z 06006KT 15/14 A2997 RMK A01 T01470139  RH  095%=      5-min Rain = 0
KAHS 230917Z 06006KT 15/14 A2997 RMK A01 T01470139  RH  095%=      5-min Rain = 0
KAHS 230918Z 06007KT 15/14 A2997 RMK A01 T01470139  RH  095%=      5-min Rain = 0
KAHS 230919Z 06007KT 15/14 A2997 RMK A01 T01470139  RH  095%=      5-min Rain = 0
KAHS 230920Z 06006KT 15/14 A2997 RMK A01 T01470139  RH  095%=      5-min Rain = 0
KAHS 230921Z 06005KT 15/14 A2997 RMK A01 T01470139  RH  095%=      5-min Rain = 0
KAHS 230922Z 07004KT 15/14 A2997 RMK A01 T01470139  RH  095%=      5-min Rain = 0
KAHS 230923Z 06006KT 15/14 A2997 RMK A01 T01470139  RH  095%=      5-min Rain = 0
KAHS 230924Z 06006KT 15/14 A2997 RMK A01 T01470139  RH  095%=      5-min Rain = 0
KAHS 230925Z 06006KT 15/14 A2997 RMK A01 T01470139  RH  095%=      5-min Rain = 0
KAHS 230926Z 07006KT 15/14 A2997 RMK A01 T01470139  RH  095%=      5-min Rain = 0
KAHS 230927Z 07007KT 15/14 A2997 RMK A01 T01470139  RH  095%=      5-min Rain = 0
KAHS 230928Z 07007KT 15/14 A2997 RMK A01 T01470139  RH  095%=      5-min Rain = 0
KAHS 230929Z 08009KT 15/14 A2996 RMK A01 T01470139  RH  095%=      5-min Rain = 0
KAHS 230930Z 07008KT 15/14 A2996 RMK A01 T01470139  RH  095%=      5-min Rain = 0
KAHS 230931Z 08009KT 15/14 A2996 RMK A01 T01470139  RH  095%=      5-min Rain = 0
KAHS 230932Z 08009KT 15/14 A2996 RMK A01 T01470139  RH  095%=      5-min Rain = 0
KAHS 230933Z 07008KT 15/14 A2996 RMK A01 T01470140  RH  095%=      5-min Rain = 0
KAHS 230934Z 07009KT 15/14 A2996 RMK A01 T01470140  RH  095%=      5-min Rain = 0
KAHS 230935Z 06008KT 15/14 A2995 RMK A01 T01460139  RH  095%=      5-min Rain = 0
KAHS 230936Z 06007KT 15/14 A2995 RMK A01 T01460139  RH  095%=      5-min Rain = 0
KAHS 230937Z 05007KT 15/14 A2996 RMK A01 T01460139  RH  096%=      5-min Rain = 0
KAHS 230938Z 05006KT 15/14 A2996 RMK A01 T01460139  RH  096%=      5-min Rain = 0
KAHS 230939Z 04006KT 15/14 A2997 RMK A01 T01460140  RH  096%=      5-min Rain = 0
KAHS 230940Z 04005KT 15/14 A2997 RMK A01 T01460140  RH  096%=      5-min Rain = 0
KAHS 230941Z 04004KT 15/14 A2997 RMK A01 T01460140  RH  096%=      5-min Rain = 0
KAHS 230942Z 04006KT 15/14 A2997 RMK A01 T01460140  RH  096%=      5-min Rain = 0
KAHS 230943Z 03006KT 15/14 A2997 RMK A01 T01460140  RH  096%=      5-min Rain = 0
KAHS 230944Z 04005KT 15/14 A2997 RMK A01 T01460140  RH  096%=      5-min Rain = 0
KAHS 230945Z 05004KT 15/14 A2997 RMK A01 T01460140  RH  096%=      5-min Rain = 0
KAHS 230946Z 04004KT 15/14 A2997 RMK A01 T01460140  RH  096%=      5-min Rain = 0
KAHS 230947Z 05004KT 15/14 A2997 RMK A01 T01470141  RH  096%=      5-min Rain = 0
KAHS 230948Z 06005KT 15/14 A2997 RMK A01 T01470140  RH  096%=      5-min Rain = 0
KAHS 230949Z 05005KT 15/14 A2997 RMK A01 T01460140  RH  096%=      5-min Rain = 0
KAHS 230950Z 06005KT 15/14 A2997 RMK A01 T01460140  RH  096%=      5-min Rain = 0
KAHS 230951Z 04007KT 15/14 A2997 RMK A01 T01460140  RH  096%=      5-min Rain = 0
KAHS 230952Z 05005KT 15/14 A2997 RMK A01 T01460140  RH  096%=      5-min Rain = 0
KAHS 230953Z 05005KT 15/14 A2997 RMK A01 T01460140  RH  096%=      5-min Rain = 0
KAHS 230954Z 06004KT 15/14 A2997 RMK A01 T01460140  RH  096%=      5-min Rain = 0
KAHS 230955Z 05005KT 15/14 A2997 RMK A01 T01460140  RH  096%=      5-min Rain = 0
KAHS 230956Z 05004KT 15/14 A2997 RMK A01 T01460140  RH  096%=      5-min Rain = 0
KAHS 230957Z 05004KT 15/14 A2997 RMK A01 T01460140  RH  096%=      5-min Rain = 0
KAHS 230958Z 04003KT 15/14 A2997 RMK A01 T01460140  RH  096%=      5-min Rain = 0
KAHS 230959Z 04003KT 15/14 A2998 RMK A01 T01460140  RH  096%=      5-min Rain = 0
KAHS 231000Z 04003KT 15/14 A2998 RMK A01 T01460140  RH  096%=      5-min Rain = 0
KAHS 231001Z 04002KT 15/14 A2998 RMK A01 T01470141  RH  096%=      5-min Rain = 0
KAHS 231002Z 02001KT 15/14 A2998 RMK A01 T01470141  RH  096%=      5-min Rain = 0
KAHS 231003Z 05002KT 15/14 A2998 RMK A01 T01470141  RH  096%=      5-min Rain = 0
KAHS 231004Z 01002KT 15/14 A2998 RMK A01 T01470141  RH  096%=      5-min Rain = 0
KAHS 231005Z 02003KT 15/14 A2998 RMK A01 T01470141  RH  096%=      5-min Rain = 0
KAHS 231006Z 02004KT 15/14 A2998 RMK A01 T01470141  RH  096%=      5-min Rain = 0
KAHS 231007Z 03005KT 15/14 A2998 RMK A01 T01470141  RH  096%=      5-min Rain = 0
KAHS 231008Z 02005KT 15/14 A2998 RMK A01 T01470141  RH  096%=      5-min Rain = 0
KAHS 231009Z 02004KT 15/14 A2998 RMK A01 T01470141  RH  096%=      5-min Rain = 0
KAHS 231010Z 01004KT 15/14 A2998 RMK A01 T01470141  RH  096%=      5-min Rain = 0
KAHS 231011Z 01004KT 15/14 A2998 RMK A01 T01470141  RH  096%=      5-min Rain = 0
KAHS 231012Z 01004KT 15/14 A2998 RMK A01 T01470141  RH  096%=      5-min Rain = 0
KAHS 231013Z 00005KT 15/14 A2999 RMK A01 T01470141  RH  096%=      5-min Rain = 0
KAHS 231014Z 01005KT 15/14 A2999 RMK A01 T01470141  RH  096%=      5-min Rain = 0
KAHS 231015Z 01006KT 15/14 A2999 RMK A01 T01470141  RH  096%=      5-min Rain = 0
KAHS 231016Z 01005KT 15/14 A2999 RMK A01 T01470141  RH  096%=      5-min Rain = 0
KAHS 231017Z 01004KT 15/14 A2999 RMK A01 T01470141  RH  096%=      5-min Rain = 0
KAHS 231018Z 01005KT 15/14 A2999 RMK A01 T01470141  RH  096%=      5-min Rain = 0
KAHS 231019Z 01005KT 15/14 A2999 RMK A01 T01470141  RH  096%=      5-min Rain = 0
KAHS 231020Z 01005KT 15/14 A2999 RMK A01 T01470141  RH  096%=      5-min Rain = 0
KAHS 231021Z 01005KT 15/14 A2999 RMK A01 T01470141  RH  096%=      5-min Rain = 0
KAHS 231022Z 01006KT 15/14 A2999 RMK A01 T01470141  RH  096%=      5-min Rain = 0
KAHS 231023Z 01005KT 15/14 A2999 RMK A01 T01470141  RH  096%=      5-min Rain = 0
KAHS 231024Z 36005KT 15/14 A2999 RMK A01 T01470141  RH  096%=      5-min Rain = 0
KAHS 231025Z 35003KT 15/14 A2999 RMK A01 T01470141  RH  096%=      5-min Rain = 0
KAHS 231026Z 34004KT 15/14 A2999 RMK A01 T01470141  RH  096%=      5-min Rain = 0
KAHS 231027Z 32004KT 15/14 A2999 RMK A01 T01470141  RH  096%=      5-min Rain = 0
KAHS 231028Z 31006KT 15/14 A30 RMK A01 T01470141  RH  096%=      5-min Rain = 0
KAHS 231029Z 30006KT 15/14 A30 RMK A01 T01460141  RH  096%=      5-min Rain = 0
KAHS 231030Z 30006KT 15/14 A30 RMK A01 T01470141  RH  096%=      5-min Rain = 0
KAHS 231031Z 30008KT 15/14 A30 RMK A01 T01470142  RH  097%=      5-min Rain = 0
KAHS 231032Z 31008KT 15/14 A30 RMK A01 T01470141  RH  096%=      5-min Rain = 0
KAHS 231033Z 32007KT 15/14 A30 RMK A01 T01470141  RH  096%=      5-min Rain = 0
KAHS 231034Z 32009KT 15/14 A30 RMK A01 T01470141  RH  096%=      5-min Rain = 0
KAHS 231035Z 33008KT 15/14 A30 RMK A01 T01460141  RH  096%=      5-min Rain = 0
KAHS 231036Z 34008KT 15/14 A30 RMK A01 T01470142  RH  097%=      5-min Rain = 0
KAHS 231037Z 35008KT 15/14 A30 RMK A01 T01470141  RH  097%=      5-min Rain = 0
KAHS 231038Z 35008KT 15/14 A30 RMK A01 T01460141  RH  097%=      5-min Rain = 0
KAHS 231039Z 34008KT 15/14 A30 RMK A01 T01460141  RH  097%=      5-min Rain = 0
KAHS 231040Z 34007KT 15/14 A30 RMK A01 T01460141  RH  097%=      5-min Rain = 0
KAHS 231041Z 34006KT 15/14 A30 RMK A01 T01460141  RH  097%=      5-min Rain = 0
KAHS 231042Z 34007KT 15/14 A30 RMK A01 T01460141  RH  097%=      5-min Rain = 0
KAHS 231043Z 34006KT 15/14 A30 RMK A01 T01460141  RH  097%=      5-min Rain = 0
KAHS 231044Z 34007KT 15/14 A30 RMK A01 T01460141  RH  097%=      5-min Rain = 0
KAHS 231045Z 35007KT 15/14 A30 RMK A01 T01460140  RH  097%=      5-min Rain = 0
KAHS 231046Z 35005KT 15/14 A30 RMK A01 T01450140  RH  096%=      5-min Rain = 0
KAHS 231047Z 35005KT 15/14 A30 RMK A01 T01460140  RH  096%=      5-min Rain = 0
KAHS 231048Z 35007KT 15/14 A30 RMK A01 T01460140  RH  096%=      5-min Rain = 0
KAHS 231049Z 35007KT 15/14 A30 RMK A01 T01460140  RH  096%=      5-min Rain = 0
KAHS 231050Z 36008KT 15/14 A30 RMK A01 T01460140  RH  096%=      5-min Rain = 0
KAHS 231051Z 35007KT 15/14 A30 RMK A01 T01460140  RH  096%=      5-min Rain = 0
KAHS 231052Z 35006KT 15/14 A30 RMK A01 T01460140  RH  096%=      5-min Rain = 0
KAHS 231053Z 36008KT 15/14 A30 RMK A01 T01460140  RH  096%=      5-min Rain = 0
KAHS 231054Z 00008KT 15/14 A30 RMK A01 T01460140  RH  096%=      5-min Rain = 0
KAHS 231055Z 36008KT 15/14 A30 RMK A01 T01460140  RH  096%=      5-min Rain = 0
KAHS 231056Z 00009KT 15/14 A30 RMK A01 T01460140  RH  096%=      5-min Rain = 0
KAHS 231057Z 01009KT 15/14 A30 RMK A01 T01460140  RH  096%=      5-min Rain = 0
KAHS 231058Z 00008KT 15/14 A2999 RMK A01 T01460140  RH  096%=      5-min Rain = 0
KAHS 231059Z 00008KT 15/14 A2999 RMK A01 T01460140  RH  096%=      5-min Rain = 0
KAHS 231100Z 01008KT 15/14 A2999 RMK A01 T01450139  RH  096%=      5-min Rain = 0
KAHS 231101Z 01008KT 15/14 A2999 RMK A01 T01450139  RH  096%=      5-min Rain = 0
KAHS 231102Z 01009KT 15/14 A2999 RMK A01 T01450139  RH  096%=      5-min Rain = 0
KAHS 231103Z 01008KT 15/14 A2999 RMK A01 T01450139  RH  096%=      5-min Rain = 0
KAHS 231104Z 02008KT 15/14 A2999 RMK A01 T01450139  RH  096%=      5-min Rain = 0
KAHS 231105Z 02008KT 15/14 A2999 RMK A01 T01450139  RH  096%=      5-min Rain = 0
KAHS 231106Z 02007KT 15/14 A2999 RMK A01 T01450139  RH  096%=      5-min Rain = 0
KAHS 231107Z 03006KT 15/14 A2999 RMK A01 T01450139  RH  096%=      5-min Rain = 0
KAHS 231108Z 04006KT 15/14 A2999 RMK A01 T01450139  RH  096%=      5-min Rain = 0
KAHS 231109Z 03005KT 15/14 A2999 RMK A01 T01450139  RH  096%=      5-min Rain = 0
KAHS 231110Z 03006KT 15/14 A2999 RMK A01 T01450139  RH  096%=      5-min Rain = 0
KAHS 231111Z 02003KT 15/14 A2999 RMK A01 T01450139  RH  096%=      5-min Rain = 0
KAHS 231112Z 02003KT 15/14 A2999 RMK A01 T01450139  RH  096%=      5-min Rain = 0
KAHS 231113Z 03003KT 15/14 A2999 RMK A01 T01460140  RH  096%=      5-min Rain = 0
KAHS 231114Z 02003KT 15/14 A2999 RMK A01 T01450139  RH  096%=      5-min Rain = 0
KAHS 231115Z 00002KT 15/14 A2999 RMK A01 T01450139  RH  096%=      5-min Rain = 0
KAHS 231116Z 02004KT 15/14 A2999 RMK A01 T01460140  RH  096%=      5-min Rain = 0
KAHS 231117Z 01004KT 15/14 A2999 RMK A01 T01450139  RH  096%=      5-min Rain = 0
KAHS 231118Z 01003KT 15/14 A2999 RMK A01 T01460140  RH  096%=      5-min Rain = 0
KAHS 231119Z 02004KT 15/14 A2999 RMK A01 T01460140  RH  096%=      5-min Rain = 0
KAHS 231120Z 02004KT 15/14 A2999 RMK A01 T01460140  RH  096%=      5-min Rain = 0
KAHS 231121Z 03004KT 15/14 A2999 RMK A01 T01460140  RH  096%=      5-min Rain = 0
KAHS 231122Z 03004KT 15/14 A2999 RMK A01 T01460140  RH  096%=      5-min Rain = 0
KAHS 231123Z 03004KT 15/14 A2999 RMK A01 T01460140  RH  096%=      5-min Rain = 0
KAHS 231124Z 03005KT 15/14 A2999 RMK A01 T01460140  RH  096%=      5-min Rain = 0
KAHS 231125Z 03006KT 15/14 A2999 RMK A01 T01460140  RH  096%=      5-min Rain = 0
KAHS 231126Z 02005KT 15/14 A2999 RMK A01 T01460140  RH  096%=      5-min Rain = 0
KAHS 231127Z 02005KT 15/14 A2999 RMK A01 T01460141  RH  096%=      5-min Rain = 0
KAHS 231128Z 03004KT 15/14 A2999 RMK A01 T01460141  RH  096%=      5-min Rain = 0
KAHS 231129Z 04004KT 15/14 A2999 RMK A01 T01460141  RH  096%=      5-min Rain = 0
KAHS 231130Z 03003KT 15/14 A2999 RMK A01 T01460140  RH  096%=      5-min Rain = 0
KAHS 231131Z 03003KT 15/14 A2999 RMK A01 T01460141  RH  096%=      5-min Rain = 0
KAHS 231132Z 04004KT 15/14 A2999 RMK A01 T01460140  RH  096%=      5-min Rain = 0
KAHS 231133Z 04003KT 15/14 A2999 RMK A01 T01460141  RH  096%=      5-min Rain = 0
KAHS 231134Z 04004KT 15/14 A2999 RMK A01 T01460141  RH  096%=      5-min Rain = 0
KAHS 231135Z 04003KT 15/14 A2999 RMK A01 T01460141  RH  096%=      5-min Rain = 0
KAHS 231136Z 04004KT 15/14 A2999 RMK A01 T01460141  RH  096%=      5-min Rain = 0
KAHS 231137Z 04003KT 15/14 A2999 RMK A01 T01460141  RH  096%=      5-min Rain = 0
KAHS 231138Z 04004KT 15/14 A2999 RMK A01 T01460141  RH  096%=      5-min Rain = 0
KAHS 231139Z 04004KT 15/14 A2999 RMK A01 T01460141  RH  096%=      5-min Rain = 0
KAHS 231140Z 03003KT 15/14 A30 RMK A01 T01460141  RH  096%=      5-min Rain = 0
KAHS 231141Z 04003KT 15/14 A30 RMK A01 T01470141  RH  096%=      5-min Rain = 0
KAHS 231142Z 03003KT 15/14 A30 RMK A01 T01470141  RH  096%=      5-min Rain = 0
KAHS 231143Z 03003KT 15/14 A30 RMK A01 T01470141  RH  096%=      5-min Rain = 0
KAHS 231144Z 03003KT 15/14 A30 RMK A01 T01470141  RH  096%=      5-min Rain = 0
KAHS 231145Z 03005KT 15/14 A30 RMK A01 T01470141  RH  096%=      5-min Rain = 0
KAHS 231146Z 03004KT 15/14 A30 RMK A01 T01460140  RH  096%=      5-min Rain = 0
KAHS 231147Z 03004KT 15/14 A30 RMK A01 T01470141  RH  096%=      5-min Rain = 0
KAHS 231148Z 02004KT 15/14 A30 RMK A01 T01470141  RH  096%=      5-min Rain = 0.02
KAHS 231149Z 02005KT 15/14 A30 RMK A01 T01470141  RH  096%=      5-min Rain = 0
KAHS 231150Z 02004KT 15/14 A30 RMK A01 T01460140  RH  096%=      5-min Rain = 0
KAHS 231151Z 01003KT 15/14 A30 RMK A01 T01460140  RH  096%=      5-min Rain = 0
KAHS 231152Z 01005KT 15/14 A30 RMK A01 T01460140  RH  096%=      5-min Rain = 0
KAHS 231153Z 00003KT 15/14 A30 RMK A01 T01460140  RH  096%=      5-min Rain = 0
KAHS 231154Z 01005KT 15/14 A30 RMK A01 T01460140  RH  096%=      5-min Rain = 0
KAHS 231155Z 01005KT 15/14 A30 RMK A01 T01460140  RH  096%=      5-min Rain = 0
KAHS 231156Z 02006KT 15/14 A30 RMK A01 T01460140  RH  096%=      5-min Rain = 0
KAHS 231157Z 03004KT 15/14 A30 RMK A01 T01460139  RH  096%=      5-min Rain = 0
KAHS 231158Z 04004KT 15/14 A30 RMK A01 T01460140  RH  096%=      5-min Rain = 0
KAHS 231159Z 05004KT 15/14 A30 RMK A01 T01460140  RH  096%=      5-min Rain = 0
KAHS 231200Z 04003KT 15/14 A30 RMK A01 T01460139  RH  096%=      5-min Rain = 0
KAHS 231201Z 05002KT 15/14 A30 RMK A01 T01460140  RH  096%=      5-min Rain = 0
KAHS 231202Z 05003KT 15/14 A3001 RMK A01 T01460140  RH  096%=      5-min Rain = 0
KAHS 231203Z 04002KT 15/14 A3001 RMK A01 T01460140  RH  096%=      5-min Rain = 0.01
KAHS 231204Z 03002KT 15/14 A3001 RMK A01 T01460140  RH  096%=      5-min Rain = 0
KAHS 231205Z 03003KT 15/14 A3001 RMK A01 T01460139  RH  096%=      5-min Rain = 0
KAHS 231206Z 02004KT 15/14 A3001 RMK A01 T01450139  RH  096%=      5-min Rain = 0
KAHS 231207Z 01004KT 15/14 A3001 RMK A01 T01450139  RH  096%=      5-min Rain = 0.01
KAHS 231208Z 00004KT 15/14 A3001 RMK A01 T01450139  RH  096%=      5-min Rain = 0
KAHS 231209Z 00003KT 15/14 A3001 RMK A01 T01450139  RH  096%=      5-min Rain = 0
KAHS 231210Z 01004KT 15/14 A3001 RMK A01 T01450139  RH  096%=      5-min Rain = 0
KAHS 231211Z 01004KT 15/14 A3001 RMK A01 T01450140  RH  096%=      5-min Rain = 0
KAHS 231212Z 02004KT 15/14 A3001 RMK A01 T01450140  RH  097%=      5-min Rain = 0
KAHS 231213Z 01004KT 15/14 A3001 RMK A01 T01450140  RH  097%=      5-min Rain = 0
KAHS 231214Z 01004KT 15/14 A3001 RMK A01 T01450140  RH  097%=      5-min Rain = 0
KAHS 231215Z 01005KT 15/14 A3001 RMK A01 T01450140  RH  097%=      5-min Rain = 0
KAHS 231216Z 01005KT 15/14 A3001 RMK A01 T01450140  RH  097%=      5-min Rain = 0
KAHS 231217Z 01005KT 14/14 A3001 RMK A01 T01440139  RH  097%=      5-min Rain = 0
KAHS 231218Z 03007KT 15/14 A3001 RMK A01 T01450140  RH  097%=      5-min Rain = 0
KAHS 231219Z 03006KT 15/14 A3001 RMK A01 T01450140  RH  097%=      5-min Rain = 0
KAHS 231220Z 03008KT 15/14 A3001 RMK A01 T01450140  RH  097%=      5-min Rain = 0
KAHS 231221Z 03009KT 14/14 A3001 RMK A01 T01440139  RH  097%=      5-min Rain = 0
KAHS 231222Z 03009KT 14/14 A3001 RMK A01 T01440139  RH  097%=      5-min Rain = 0
KAHS 231223Z 03008KT 14/14 A3001 RMK A01 T01440139  RH  097%=      5-min Rain = 0
KAHS 231224Z 04008KT 14/14 A3001 RMK A01 T01440139  RH  097%=      5-min Rain = 0
KAHS 231225Z 04010KT 14/14 A3001 RMK A01 T01440140  RH  097%=      5-min Rain = 0
KAHS 231226Z 04009KT 14/14 A3001 RMK A01 T01440139  RH  097%=      5-min Rain = 0
KAHS 231227Z 04009KT 14/14 A3001 RMK A01 T01440139  RH  097%=      5-min Rain = 0
KAHS 231228Z 05007KT 14/14 A3001 RMK A01 T01440139  RH  097%=      5-min Rain = 0
KAHS 231229Z 05007KT 14/14 A3001 RMK A01 T01440139  RH  097%=      5-min Rain = 0
KAHS 231230Z 04007KT 14/14 A3001 RMK A01 T01440139  RH  097%=      5-min Rain = 0
KAHS 231231Z 04007KT 14/14 A3001 RMK A01 T01440139  RH  097%=      5-min Rain = 0
KAHS 231232Z 04006KT 14/14 A3001 RMK A01 T01440139  RH  097%=      5-min Rain = 0
KAHS 231233Z 04005KT 14/14 A3001 RMK A01 T01440139  RH  097%=      5-min Rain = 0
KAHS 231234Z 04005KT 14/14 A3001 RMK A01 T01440139  RH  097%=      5-min Rain = 0
KAHS 231235Z 04006KT 14/14 A3001 RMK A01 T01440139  RH  097%=      5-min Rain = 0
KAHS 231236Z 04005KT 14/14 A3001 RMK A01 T01430138  RH  097%=      5-min Rain = 0
KAHS 231237Z 04005KT 14/14 A3001 RMK A01 T01430138  RH  097%=      5-min Rain = 0
KAHS 231238Z 04004KT 14/14 A3001 RMK A01 T01430138  RH  097%=      5-min Rain = 0
KAHS 231239Z 04004KT 14/14 A3001 RMK A01 T01430138  RH  097%=      5-min Rain = 0
KAHS 231240Z 03004KT 14/14 A3001 RMK A01 T01440139  RH  097%=      5-min Rain = 0
KAHS 231241Z 03006KT 14/14 A3002 RMK A01 T01440139  RH  097%=      5-min Rain = 0
KAHS 231242Z 04007KT 14/14 A3002 RMK A01 T01430138  RH  097%=      5-min Rain = 0
KAHS 231243Z 03005KT 14/14 A3002 RMK A01 T01430138  RH  097%=      5-min Rain = 0.01
KAHS 231244Z 02006KT 14/14 A3002 RMK A01 T01430138  RH  097%=      5-min Rain = 0
KAHS 231245Z 02003KT 14/14 A3002 RMK A01 T01430138  RH  097%=      5-min Rain = 0
KAHS 231246Z 01006KT 14/14 A3002 RMK A01 T01430138  RH  097%=      5-min Rain = 0
KAHS 231247Z 01004KT 14/14 A3003 RMK A01 T01430138  RH  097%=      5-min Rain = 0
KAHS 231248Z 02004KT 14/14 A3003 RMK A01 T01430138  RH  097%=      5-min Rain = 0
KAHS 231249Z 02003KT 14/14 A3003 RMK A01 T01430138  RH  097%=      5-min Rain = 0
KAHS 231250Z 04004KT 14/14 A3003 RMK A01 T01430138  RH  097%=      5-min Rain = 0
KAHS 231251Z 04006KT 14/14 A3002 RMK A01 T01430137  RH  097%=      5-min Rain = 0
KAHS 231252Z 05005KT 14/14 A3002 RMK A01 T01420137  RH  097%=      5-min Rain = 0
KAHS 231253Z 05007KT 14/14 A3002 RMK A01 T01430137  RH  097%=      5-min Rain = 0
KAHS 231254Z 05006KT 14/14 A3002 RMK A01 T01420137  RH  097%=      5-min Rain = 0
KAHS 231255Z 05005KT 14/14 A3002 RMK A01 T01430137  RH  097%=      5-min Rain = 0
KAHS 231256Z 05005KT 14/14 A3002 RMK A01 T01430138  RH  097%=      5-min Rain = 0
KAHS 231257Z 05004KT 14/14 A3002 RMK A01 T01430138  RH  097%=      5-min Rain = 0
KAHS 231258Z 04006KT 14/14 A3002 RMK A01 T01430138  RH  097%=      5-min Rain = 0
KAHS 231259Z 04005KT 14/14 A3002 RMK A01 T01420137  RH  097%=      5-min Rain = 0
KAHS 231300Z 03005KT 14/14 A3002 RMK A01 T01420137  RH  097%=      5-min Rain = 0.01
KAHS 231301Z 04006KT 14/14 A3002 RMK A01 T01430137  RH  097%=      5-min Rain = 0
KAHS 231302Z 04006KT 14/14 A3002 RMK A01 T01420137  RH  097%=      5-min Rain = 0
KAHS 231303Z 04006KT 14/14 A3002 RMK A01 T01420137  RH  097%=      5-min Rain = 0
KAHS 231304Z 04006KT 14/14 A3002 RMK A01 T01420137  RH  097%=      5-min Rain = 0
KAHS 231305Z 04006KT 14/14 A3002 RMK A01 T01420137  RH  097%=      5-min Rain = 0
KAHS 231306Z 03008KT 14/14 A3002 RMK A01 T01430138  RH  097%=      5-min Rain = 0
KAHS 231307Z 03006KT 14/14 A3002 RMK A01 T01420137  RH  097%=      5-min Rain = 0
KAHS 231308Z 03006KT 14/14 A3002 RMK A01 T01420137  RH  097%=      5-min Rain = 0
KAHS 231309Z 03006KT 14/14 A3002 RMK A01 T01420138  RH  097%=      5-min Rain = 0
KAHS 231310Z 03005KT 14/14 A3002 RMK A01 T01430138  RH  097%=      5-min Rain = 0
KAHS 231311Z 04004KT 14/14 A3002 RMK A01 T01430138  RH  097%=      5-min Rain = 0
KAHS 231312Z 04005KT 14/14 A3003 RMK A01 T01420138  RH  097%=      5-min Rain = 0
KAHS 231313Z 04004KT 14/14 A3003 RMK A01 T01420138  RH  097%=      5-min Rain = 0
KAHS 231314Z 03003KT 14/14 A3003 RMK A01 T01420138  RH  097%=      5-min Rain = 0
KAHS 231315Z 03004KT 14/14 A3003 RMK A01 T01420138  RH  097%=      5-min Rain = 0
KAHS 231316Z 03004KT 14/14 A3004 RMK A01 T01420138  RH  097%=      5-min Rain = 0
KAHS 231317Z 01003KT 14/14 A3004 RMK A01 T01420138  RH  097%=      5-min Rain = 0
KAHS 231318Z 00003KT 14/14 A3004 RMK A01 T01420138  RH  097%=      5-min Rain = 0
KAHS 231319Z 35003KT 14/14 A3004 RMK A01 T01420138  RH  097%=      5-min Rain = 0
KAHS 231320Z 34002KT 14/14 A3004 RMK A01 T01420138  RH  097%=      5-min Rain = 0
KAHS 231321Z 33003KT 14/14 A3004 RMK A01 T01430138  RH  097%=      5-min Rain = 0
KAHS 231322Z 32003KT 14/14 A3004 RMK A01 T01430139  RH  097%=      5-min Rain = 0
KAHS 231323Z 34004KT 14/14 A3004 RMK A01 T01430138  RH  097%=      5-min Rain = 0
KAHS 231324Z 35003KT 14/14 A3004 RMK A01 T01430138  RH  097%=      5-min Rain = 0
KAHS 231325Z 35004KT 14/14 A3004 RMK A01 T01430138  RH  097%=      5-min Rain = 0
KAHS 231326Z 36004KT 14/14 A3004 RMK A01 T01430139  RH  097%=      5-min Rain = 0
KAHS 231327Z 00005KT 14/14 A3004 RMK A01 T01430139  RH  097%=      5-min Rain = 0
KAHS 231328Z 00005KT 14/14 A3004 RMK A01 T01430139  RH  097%=      5-min Rain = 0
KAHS 231329Z 01006KT 14/14 A3004 RMK A01 T01430139  RH  097%=      5-min Rain = 0
KAHS 231330Z 02006KT 14/14 A3004 RMK A01 T01430139  RH  097%=      5-min Rain = 0
KAHS 231331Z 03005KT 14/14 A3004 RMK A01 T01430139  RH  097%=      5-min Rain = 0.01
KAHS 231332Z 04004KT 14/14 A3004 RMK A01 T01430139  RH  097%=      5-min Rain = 0
KAHS 231333Z 06003KT 14/14 A3004 RMK A01 T01430139  RH  097%=      5-min Rain = 0
KAHS 231334Z 06004KT 14/14 A3004 RMK A01 T01430139  RH  097%=      5-min Rain = 0
KAHS 231335Z 08003KT 14/14 A3004 RMK A01 T01430139  RH  097%=      5-min Rain = 0.01
KAHS 231336Z 08003KT 14/14 A3004 RMK A01 T01430139  RH  097%=      5-min Rain = 0
KAHS 231337Z 09002KT 14/14 A3004 RMK A01 T01430139  RH  097%=      5-min Rain = 0
KAHS 231338Z 09002KT 14/14 A3004 RMK A01 T01430139  RH  098%=      5-min Rain = 0
KAHS 231339Z 09002KT 14/14 A3004 RMK A01 T01430139  RH  098%=      5-min Rain = 0
KAHS 231340Z 10002KT 14/14 A3004 RMK A01 T01420139  RH  098%=      5-min Rain = 0
KAHS 231341Z 11001KT 14/14 A3004 RMK A01 T01420139  RH  098%=      5-min Rain = 0
KAHS 231342Z 09001KT 14/14 A3005 RMK A01 T01420139  RH  098%=      5-min Rain = 0
KAHS 231343Z 02001KT 14/14 A3005 RMK A01 T01420139  RH  098%=      5-min Rain = 0.01
KAHS 231344Z 35001KT 14/14 A3005 RMK A01 T01430139  RH  098%=      5-min Rain = 0.01
KAHS 231345Z 35001KT 14/14 A3005 RMK A01 T01420139  RH  098%=      5-min Rain = 0
KAHS 231346Z 35001KT 14/14 A3005 RMK A01 T01420139  RH  098%=      5-min Rain = 0.01
KAHS 231347Z 33002KT 14/14 A3005 RMK A01 T01420139  RH  098%=      5-min Rain = 0
KAHS 231348Z 32003KT 14/14 A3005 RMK A01 T01420138  RH  098%=      5-min Rain = 0
KAHS 231349Z 31004KT 14/14 A3005 RMK A01 T01420139  RH  098%=      5-min Rain = 0.01
KAHS 231350Z 30006KT 14/14 A3006 RMK A01 T01430139  RH  098%=      5-min Rain = 0.01
KAHS 231351Z 31007KT 14/14 A3006 RMK A01 T01430139  RH  098%=      5-min Rain = 0
KAHS 231352Z 30008KT 14/14 A3006 RMK A01 T01430140  RH  098%=      5-min Rain = 0
KAHS 231353Z 30008KT 14/14 A3007 RMK A01 T01430140  RH  098%=      5-min Rain = 0.01
KAHS 231354Z 30009KT 14/14 A3007 RMK A01 T01430140  RH  098%=      5-min Rain = 0
KAHS 231355Z 30010KT 14/14 A3007 RMK A01 T01430140  RH  098%=      5-min Rain = 0
KAHS 231356Z 29010KT 14/14 A3007 RMK A01 T01420139  RH  098%=      5-min Rain = 0.01
KAHS 231357Z 29010KT 14/14 A3008 RMK A01 T01420139  RH  098%=      5-min Rain = 0
KAHS 231358Z 28011KT 14/14 A3008 RMK A01 T01420139  RH  098%=      5-min Rain = 0
KAHS 231359Z 29012KT 14/14 A3007 RMK A01 T01420139  RH  098%=      5-min Rain = 0
KAHS 231400Z 30018KT 14/14 A3007 RMK A01 T01420139  RH  098%=      5-min Rain = 0.01
KAHS 231401Z 32014G19KT 14/14 A3007 RMK A01 T01420139  RH  098%=      5-min Rain = 0.02
KAHS 231402Z 35009KT 14/14 A3007 RMK A01 T01420139  RH  098%=      5-min Rain = 0.01
KAHS 231403Z 03011KT 14/14 A3005 RMK A01 T01420138  RH  097%=      5-min Rain = 0.01
KAHS 231404Z 03012KT 14/14 A3005 RMK A01 T01430139  RH  097%=      5-min Rain = 0
KAHS 231405Z 03012KT 14/14 A3004 RMK A01 T01430138  RH  097%=      5-min Rain = 0.02
KAHS 231406Z 04010KT 14/14 A3004 RMK A01 T01430137  RH  096%=      5-min Rain = 0.01
KAHS 231407Z 04011KT 14/14 A3004 RMK A01 T01430136  RH  096%=      5-min Rain = 0.01
KAHS 231408Z 04010KT 14/14 A3004 RMK A01 T01420136  RH  096%=      5-min Rain = 0
KAHS 231409Z 05008KT 14/14 A3004 RMK A01 T01420136  RH  096%=      5-min Rain = 0
KAHS 231410Z 05007KT 14/14 A3004 RMK A01 T01420136  RH  096%=      5-min Rain = 0
KAHS 231411Z 05008KT 14/14 A3004 RMK A01 T01420136  RH  096%=      5-min Rain = 0.01
KAHS 231412Z 06009KT 14/14 A3003 RMK A01 T01420136  RH  096%=      5-min Rain = 0
KAHS 231413Z 06010KT 14/14 A3003 RMK A01 T01420136  RH  096%=      5-min Rain = 0
KAHS 231414Z 05011KT 14/14 A3002 RMK A01 T01420136  RH  096%=      5-min Rain = 0
KAHS 231415Z 05010KT 14/14 A3002 RMK A01 T01420136  RH  096%=      5-min Rain = 0
KAHS 231416Z 05008KT 14/14 A3003 RMK A01 T01420135  RH  096%=      5-min Rain = 0.01
KAHS 231417Z 05006KT 14/14 A3003 RMK A01 T01420135  RH  096%=      5-min Rain = 0
KAHS 231418Z 05008KT 14/14 A3003 RMK A01 T01420135  RH  096%=      5-min Rain = 0
KAHS 231419Z 05009KT 14/14 A3003 RMK A01 T01420136  RH  096%=      5-min Rain = 0
KAHS 231420Z 04007KT 14/14 A3003 RMK A01 T01420135  RH  095%=      5-min Rain = 0
KAHS 231421Z 05008KT 14/14 A3003 RMK A01 T01420135  RH  095%=      5-min Rain = 0
KAHS 231422Z 05008KT 14/14 A3003 RMK A01 T01420135  RH  095%=      5-min Rain = 0
KAHS 231423Z 04009KT 14/14 A3003 RMK A01 T01430135  RH  095%=      5-min Rain = 0
KAHS 231424Z 04007KT 14/14 A3003 RMK A01 T01430135  RH  095%=      5-min Rain = 0
KAHS 231425Z 04006KT 14/14 A3004 RMK A01 T01430135  RH  095%=      5-min Rain = 0
KAHS 231426Z 04008KT 14/14 A3004 RMK A01 T01430135  RH  095%=      5-min Rain = 0
KAHS 231427Z 05007KT 14/14 A3004 RMK A01 T01420135  RH  095%=      5-min Rain = 0
KAHS 231428Z 06006KT 14/14 A3004 RMK A01 T01420135  RH  095%=      5-min Rain = 0
KAHS 231429Z 06008KT 14/14 A3004 RMK A01 T01420135  RH  095%=      5-min Rain = 0.01
KAHS 231430Z 05008KT 14/14 A3004 RMK A01 T01420135  RH  096%=      5-min Rain = 0
KAHS 231431Z 04009KT 14/14 A3004 RMK A01 T01420135  RH  096%=      5-min Rain = 0
KAHS 231432Z 03010KT 14/14 A3003 RMK A01 T01420135  RH  096%=      5-min Rain = 0
KAHS 231433Z 03010KT 14/14 A3003 RMK A01 T01420135  RH  096%=      5-min Rain = 0
KAHS 231434Z 03011KT 14/14 A3002 RMK A01 T01420135  RH  096%=      5-min Rain = 0
KAHS 231435Z 03012KT 14/14 A3002 RMK A01 T01420136  RH  096%=      5-min Rain = 0
KAHS 231436Z 02012KT 14/14 A3002 RMK A01 T01420136  RH  096%=      5-min Rain = 0
KAHS 231437Z 02012KT 14/14 A3002 RMK A01 T01410135  RH  096%=      5-min Rain = 0
KAHS 231438Z 02012KT 14/14 A3001 RMK A01 T01410136  RH  097%=      5-min Rain = 0
KAHS 231439Z 03012KT 14/14 A3002 RMK A01 T01410136  RH  097%=      5-min Rain = 0
KAHS 231440Z 03013KT 14/14 A3002 RMK A01 T01410136  RH  097%=      5-min Rain = 0
KAHS 231441Z 03011KT 14/14 A3002 RMK A01 T01410136  RH  097%=      5-min Rain = 0.01
KAHS 231442Z 03011KT 14/14 A3002 RMK A01 T01410136  RH  097%=      5-min Rain = 0
KAHS 231443Z 04009KT 14/14 A3002 RMK A01 T01410136  RH  097%=      5-min Rain = 0
KAHS 231444Z 05009KT 14/14 A3003 RMK A01 T01410136  RH  097%=      5-min Rain = 0
KAHS 231445Z 06009KT 14/14 A3003 RMK A01 T01410136  RH  097%=      5-min Rain = 0
KAHS 231446Z 06008KT 14/14 A3003 RMK A01 T01400136  RH  097%=      5-min Rain = 0
KAHS 231447Z 04009KT 14/14 A3004 RMK A01 T01410136  RH  097%=      5-min Rain = 0
KAHS 231448Z 04008KT 14/14 A3004 RMK A01 T01410136  RH  097%=      5-min Rain = 0
KAHS 231449Z 05007KT 14/14 A3004 RMK A01 T01410136  RH  097%=      5-min Rain = 0
KAHS 231450Z 05007KT 14/14 A3004 RMK A01 T01410136  RH  097%=      5-min Rain = 0
KAHS 231451Z 05006KT 14/14 A3005 RMK A01 T01410136  RH  097%=      5-min Rain = 0
KAHS 231452Z 04005KT 14/14 A3005 RMK A01 T01410137  RH  097%=      5-min Rain = 0
KAHS 231453Z 03004KT 14/14 A3005 RMK A01 T01410136  RH  097%=      5-min Rain = 0
KAHS 231454Z 02006KT 14/14 A3005 RMK A01 T01410137  RH  097%=      5-min Rain = 0
KAHS 231455Z 02005KT 14/14 A3005 RMK A01 T01400137  RH  097%=      5-min Rain = 0
KAHS 231456Z 01005KT 14/14 A3005 RMK A01 T01410137  RH  097%=      5-min Rain = 0
KAHS 231457Z 01003KT 14/14 A3005 RMK A01 T01410137  RH  097%=      5-min Rain = 0
KAHS 231458Z 01004KT 14/14 A3005 RMK A01 T01410137  RH  098%=      5-min Rain = 0
KAHS 231459Z 03004KT 14/14 A3005 RMK A01 T01400137  RH  098%=      5-min Rain = 0
KAHS 231500Z 03004KT 14/14 A3005 RMK A01 T01410137  RH  098%=      5-min Rain = 0
KAHS 231501Z 04005KT 14/14 A3005 RMK A01 T01410137  RH  098%=      5-min Rain = 0
KAHS 231502Z 03004KT 14/14 A3005 RMK A01 T01410137  RH  098%=      5-min Rain = 0.01
KAHS 231503Z 05002KT 14/14 A3005 RMK A01 T01410137  RH  098%=      5-min Rain = 0
KAHS 231504Z 06004KT 14/14 A3005 RMK A01 T01410137  RH  098%=      5-min Rain = 0
KAHS 231505Z 05003KT 14/14 A3005 RMK A01 T01410137  RH  098%=      5-min Rain = 0
KAHS 231506Z 02002KT 14/14 A3005 RMK A01 T01410137  RH  098%=      5-min Rain = 0
KAHS 231507Z 03004KT 14/14 A3004 RMK A01 T01410137  RH  098%=      5-min Rain = 0
KAHS 231508Z 01004KT 14/14 A3004 RMK A01 T01410137  RH  098%=      5-min Rain = 0
KAHS 231509Z 36005KT 14/14 A3004 RMK A01 T01410137  RH  098%=      5-min Rain = 0
KAHS 231510Z 35005KT 14/14 A3004 RMK A01 T01410137  RH  098%=      5-min Rain = 0.01
KAHS 231511Z 36005KT 14/14 A3004 RMK A01 T01410137  RH  098%=      5-min Rain = 0
KAHS 231512Z 35005KT 14/14 A3004 RMK A01 T01410137  RH  098%=      5-min Rain = 0
KAHS 231513Z 35005KT 14/14 A3004 RMK A01 T01410138  RH  098%=      5-min Rain = 0
KAHS 231514Z 01003KT 14/14 A3004 RMK A01 T01410137  RH  098%=      5-min Rain = 0
KAHS 231515Z 06004KT 14/14 A3004 RMK A01 T01410137  RH  098%=      5-min Rain = 0
KAHS 231516Z 06007KT 14/14 A3004 RMK A01 T01410137  RH  098%=      5-min Rain = 0.01
KAHS 231517Z 08009KT 14/14 A3004 RMK A01 T01410137  RH  098%=      5-min Rain = 0
KAHS 231518Z 08010KT 14/14 A3004 RMK A01 T01410137  RH  098%=      5-min Rain = 0
KAHS 231519Z 09010KT 14/14 A3005 RMK A01 T01400137  RH  098%=      5-min Rain = 0
KAHS 231520Z 09011KT 14/14 A3005 RMK A01 T01410137  RH  098%=      5-min Rain = 0
KAHS 231521Z 09013KT 14/14 A3005 RMK A01 T01410137  RH  098%=      5-min Rain = 0
KAHS 231522Z 09014KT 14/14 A3005 RMK A01 T01410137  RH  098%=      5-min Rain = 0
KAHS 231523Z 09013KT 14/14 A3005 RMK A01 T01410137  RH  098%=      5-min Rain = 0
KAHS 231524Z 10015KT 14/14 A3006 RMK A01 T01410137  RH  098%=      5-min Rain = 0.01
KAHS 231525Z 11015KT 14/14 A3006 RMK A01 T01410137  RH  098%=      5-min Rain = 0
KAHS 231526Z 12012KT 14/14 A3007 RMK A01 T01410137  RH  098%=      5-min Rain = 0
KAHS 231527Z 13010KT 14/14 A3007 RMK A01 T01410137  RH  098%=      5-min Rain = 0
KAHS 231528Z 13010KT 14/14 A3007 RMK A01 T01410137  RH  098%=      5-min Rain = 0
KAHS 231529Z 12008KT 14/14 A3006 RMK A01 T01410137  RH  098%=      5-min Rain = 0
KAHS 231530Z 13008KT 14/14 A3006 RMK A01 T01410138  RH  098%=      5-min Rain = 0
KAHS 231531Z 13007KT 14/14 A3006 RMK A01 T01410138  RH  098%=      5-min Rain = 0.01
KAHS 231532Z 08004KT 14/14 A3005 RMK A01 T01410137  RH  098%=      5-min Rain = 0
KAHS 231533Z 07007KT 14/14 A3004 RMK A01 T01410137  RH  098%=      5-min Rain = 0
KAHS 231534Z 06008KT 14/14 A3003 RMK A01 T01410137  RH  098%=      5-min Rain = 0
KAHS 231535Z 06011KT 14/14 A3002 RMK A01 T01410138  RH  098%=      5-min Rain = 0
KAHS 231536Z 06014G19KT 14/14 A3001 RMK A01 T01410138  RH  098%=      5-min Rain = 0.01
KAHS 231537Z 05014G19KT 14/14 A30 RMK A01 T01410138  RH  098%=      5-min Rain = 0
KAHS 231538Z 05016KT 14/14 A30 RMK A01 T01410138  RH  098%=      5-min Rain = 0
KAHS 231539Z 04012KT 14/14 A30 RMK A01 T01410138  RH  098%=      5-min Rain = 0
KAHS 231540Z 05010G15KT 14/14 A30 RMK A01 T01420138  RH  098%=      5-min Rain = 0
KAHS 231541Z 05010KT 14/14 A2999 RMK A01 T01420138  RH  098%=      5-min Rain = 0
KAHS 231542Z 06009KT 14/14 A2999 RMK A01 T01420139  RH  098%=      5-min Rain = 0
KAHS 231543Z 06012KT 14/14 A2999 RMK A01 T01430140  RH  098%=      5-min Rain = 0
KAHS 231544Z 06012KT 14/14 A2998 RMK A01 T01430140  RH  098%=      5-min Rain = 0
KAHS 231545Z 07014G19KT 14/14 A2999 RMK A01 T01440140  RH  098%=      5-min Rain = 0
KAHS 231546Z 08015G20KT 14/14 A2999 RMK A01 T01440140  RH  098%=      5-min Rain = 0
KAHS 231547Z 09013KT 14/14 A30 RMK A01 T01440141  RH  098%=      5-min Rain = 0
KAHS 231548Z 09013KT 15/14 A3001 RMK A01 T01450141  RH  098%=      5-min Rain = 0
KAHS 231549Z 10011KT 15/14 A3001 RMK A01 T01460142  RH  098%=      5-min Rain = 0
KAHS 231550Z 10009KT 15/14 A3001 RMK A01 T01470143  RH  098%=      5-min Rain = 0
KAHS 231551Z 10009KT 15/14 A3001 RMK A01 T01470144  RH  098%=      5-min Rain = 0
KAHS 231552Z 09011KT 15/14 A3001 RMK A01 T01480144  RH  098%=      5-min Rain = 0
KAHS 231553Z 08010KT 15/15 A3001 RMK A01 T01520148  RH  098%=      5-min Rain = 0
KAHS 231554Z 08009KT 15/15 A3001 RMK A01 T01530150  RH  098%=      5-min Rain = 0
KAHS 231555Z 08010KT 15/15 A3001 RMK A01 T01540150  RH  098%=      5-min Rain = 0
KAHS 231556Z 08008KT 16/15 A3001 RMK A01 T01560152  RH  097%=      5-min Rain = 0
KAHS 231557Z 08009G14KT 16/15 A3002 RMK A01 T01580154  RH  097%=      5-min Rain = 0
KAHS 231558Z 09009KT 16/15 A3002 RMK A01 T01580153  RH  097%=      5-min Rain = 0
KAHS 231559Z 09009KT 16/15 A3002 RMK A01 T01590154  RH  097%=      5-min Rain = 0
KAHS 231600Z 08010KT 16/15 A3002 RMK A01 T01570151  RH  096%=      5-min Rain = 0
KAHS 231601Z 08010KT 16/15 A3002 RMK A01 T01570151  RH  096%=      5-min Rain = 0
KAHS 231602Z 07009KT 16/15 A3002 RMK A01 T01590153  RH  096%=      5-min Rain = 0
KAHS 231603Z 07013KT 16/15 A3002 RMK A01 T01580151  RH  096%=      5-min Rain = 0
KAHS 231604Z 07009KT 16/15 A3002 RMK A01 T01580150  RH  095%=      5-min Rain = 0
KAHS 231605Z 07011KT 16/15 A3002 RMK A01 T01590152  RH  095%=      5-min Rain = 0
KAHS 231606Z 07010KT 16/15 A3002 RMK A01 T01590151  RH  095%=      5-min Rain = 0
KAHS 231607Z 07012KT 16/15 A3002 RMK A01 T01580149  RH  094%=      5-min Rain = 0
KAHS 231608Z 09013KT 16/15 A3002 RMK A01 T01580148  RH  094%=      5-min Rain = 0
KAHS 231609Z 08009KT 16/15 A3002 RMK A01 T01590149  RH  093%=      5-min Rain = 0
KAHS 231610Z 07009KT 16/15 A3002 RMK A01 T01610150  RH  094%=      5-min Rain = 0
KAHS 231611Z 07011KT 16/15 A3002 RMK A01 T01610151  RH  093%=      5-min Rain = 0
KAHS 231612Z 09011KT 16/15 A3002 RMK A01 T01620151  RH  093%=      5-min Rain = 0
KAHS 231613Z 10009KT 16/15 A3002 RMK A01 T01630153  RH  093%=      5-min Rain = 0
KAHS 231614Z 10009KT 16/15 A3002 RMK A01 T01630152  RH  093%=      5-min Rain = 0
KAHS 231615Z 08008KT 16/15 A3002 RMK A01 T01640152  RH  093%=      5-min Rain = 0
KAHS 231616Z 09010KT 17/16 A3003 RMK A01 T01660155  RH  093%=      5-min Rain = 0
KAHS 231617Z 09008KT 17/15 A3003 RMK A01 T01660153  RH  092%=      5-min Rain = 0
KAHS 231618Z 07010KT 17/16 A3003 RMK A01 T01680155  RH  092%=      5-min Rain = 0
KAHS 231619Z 07010KT 17/15 A3003 RMK A01 T01670151  RH  091%=      5-min Rain = 0
KAHS 231620Z 09010KT 17/15 A3003 RMK A01 T01680153  RH  091%=      5-min Rain = 0
KAHS 231621Z 08009KT 17/15 A3003 RMK A01 T01670152  RH  091%=      5-min Rain = 0
KAHS 231622Z 08010KT 17/15 A3003 RMK A01 T01680154  RH  091%=      5-min Rain = 0
KAHS 231623Z 08007KT 17/16 A3003 RMK A01 T01700156  RH  091%=      5-min Rain = 0
KAHS 231624Z 08008KT 17/16 A3003 RMK A01 T01720157  RH  091%=      5-min Rain = 0
KAHS 231625Z 08009KT 17/16 A3003 RMK A01 T01720157  RH  091%=      5-min Rain = 0
KAHS 231626Z 08009KT 17/16 A3003 RMK A01 T01710155  RH  090%=      5-min Rain = 0
KAHS 231627Z 07010KT 17/15 A3003 RMK A01 T01700153  RH  090%=      5-min Rain = 0
KAHS 231628Z 07011KT 17/15 A3003 RMK A01 T01680149  RH  089%=      5-min Rain = 0
KAHS 231629Z 07009KT 17/15 A3003 RMK A01 T01660146  RH  088%=      5-min Rain = 0
KAHS 231630Z 08009KT 17/15 A3003 RMK A01 T01670150  RH  089%=      5-min Rain = 0
KAHS 231631Z 08009KT 17/15 A3003 RMK A01 T01690151  RH  089%=      5-min Rain = 0
KAHS 231632Z 07010KT 17/15 A3003 RMK A01 T01700150  RH  088%=      5-min Rain = 0
KAHS 231633Z 08010KT 17/15 A3003 RMK A01 T01710150  RH  087%=      5-min Rain = 0
KAHS 231634Z 08011KT 17/15 A3003 RMK A01 T01720149  RH  087%=      5-min Rain = 0
KAHS 231635Z 08009KT 17/15 A3003 RMK A01 T01730151  RH  087%=      5-min Rain = 0
KAHS 231636Z 08008KT 17/15 A3003 RMK A01 T01740151  RH  087%=      5-min Rain = 0
KAHS 231637Z 09011KT 17/15 A3003 RMK A01 T01740150  RH  086%=      5-min Rain = 0
KAHS 231638Z 08009KT 17/15 A3003 RMK A01 T01730150  RH  086%=      5-min Rain = 0
KAHS 231639Z 07008KT 17/15 A3003 RMK A01 T01740151  RH  086%=      5-min Rain = 0
KAHS 231640Z 06008KT 18/15 A3003 RMK A01 T01750153  RH  087%=      5-min Rain = 0
KAHS 231641Z 06010KT 18/15 A3003 RMK A01 T01750154  RH  087%=      5-min Rain = 0
KAHS 231642Z 06012KT 17/15 A3003 RMK A01 T01740150  RH  086%=      5-min Rain = 0
KAHS 231643Z 06010KT 17/15 A3003 RMK A01 T01730148  RH  086%=      5-min Rain = 0
KAHS 231644Z 06008KT 17/15 A3003 RMK A01 T01730149  RH  086%=      5-min Rain = 0
KAHS 231645Z 07008KT 17/15 A3003 RMK A01 T01740150  RH  086%=      5-min Rain = 0
KAHS 231646Z 07008KT 18/15 A3003 RMK A01 T01760153  RH  086%=      5-min Rain = 0
KAHS 231647Z 06008KT 18/15 A3003 RMK A01 T01770151  RH  085%=      5-min Rain = 0
KAHS 231648Z 08008KT 18/15 A3003 RMK A01 T01770151  RH  085%=      5-min Rain = 0
KAHS 231649Z 08009KT 18/15 A3003 RMK A01 T01750148  RH  084%=      5-min Rain = 0
KAHS 231650Z 09008KT 18/15 A3003 RMK A01 T01750149  RH  085%=      5-min Rain = 0
KAHS 231651Z 08007KT 17/15 A3003 RMK A01 T01740148  RH  085%=      5-min Rain = 0
KAHS 231652Z 07007KT 18/15 A3003 RMK A01 T01760151  RH  085%=      5-min Rain = 0
KAHS 231653Z 07009KT 18/15 A3003 RMK A01 T01760150  RH  085%=      5-min Rain = 0
KAHS 231654Z 06006KT 17/15 A3004 RMK A01 T01740146  RH  084%=      5-min Rain = 0
KAHS 231655Z 08006KT 17/15 A3004 RMK A01 T01740149  RH  085%=      5-min Rain = 0
KAHS 231656Z 08005KT 18/15 A3004 RMK A01 T01750151  RH  086%=      5-min Rain = 0
KAHS 231657Z 08004KT 18/15 A3004 RMK A01 T01770152  RH  085%=      5-min Rain = 0
KAHS 231658Z 07005KT 18/15 A3004 RMK A01 T01780153  RH  085%=      5-min Rain = 0
KAHS 231659Z 08006KT 18/15 A3004 RMK A01 T01800153  RH  085%=      5-min Rain = 0
KAHS 231700Z 06006KT 18/15 A3004 RMK A01 T01800154  RH  084%=      5-min Rain = 0
KAHS 231701Z 05005KT 18/15 A3004 RMK A01 T01800150  RH  083%=      5-min Rain = 0
KAHS 231702Z 07005KT 18/15 A3004 RMK A01 T01790146  RH  081%=      5-min Rain = 0
KAHS 231703Z 07005KT 18/15 A3004 RMK A01 T01790151  RH  083%=      5-min Rain = 0
KAHS 231704Z 08006KT 18/15 A3004 RMK A01 T01800153  RH  084%=      5-min Rain = 0
KAHS 231705Z 09007KT 18/15 A3004 RMK A01 T01790148  RH  082%=      5-min Rain = 0
KAHS 231706Z 08008KT 18/15 A3004 RMK A01 T01780145  RH  081%=      5-min Rain = 0
KAHS 231707Z 08007KT 18/15 A3004 RMK A01 T01810150  RH  082%=      5-min Rain = 0
KAHS 231708Z 08006KT 18/15 A3004 RMK A01 T01830149  RH  081%=      5-min Rain = 0
KAHS 231709Z 09006KT 18/15 A3004 RMK A01 T01810146  RH  080%=      5-min Rain = 0
KAHS 231710Z 09006KT 18/15 A3004 RMK A01 T01830151  RH  082%=      5-min Rain = 0
KAHS 231711Z 07009KT 19/15 A3003 RMK A01 T01850151  RH  081%=      5-min Rain = 0
KAHS 231712Z 07009KT 18/15 A3003 RMK A01 T01840149  RH  080%=      5-min Rain = 0
KAHS 231713Z 07008KT 18/15 A3003 RMK A01 T01840149  RH  080%=      5-min Rain = 0
KAHS 231714Z 07008KT 18/15 A3003 RMK A01 T01820148  RH  080%=      5-min Rain = 0
KAHS 231715Z 07006KT 18/15 A3003 RMK A01 T01800145  RH  080%=      5-min Rain = 0
KAHS 231716Z 08004KT 18/15 A3004 RMK A01 T01790148  RH  082%=      5-min Rain = 0
KAHS 231717Z 07004KT 18/15 A3004 RMK A01 T01800150  RH  083%=      5-min Rain = 0
KAHS 231718Z 06006KT 18/15 A3004 RMK A01 T01810151  RH  083%=      5-min Rain = 0
KAHS 231719Z 08006KT 18/15 A3004 RMK A01 T01800149  RH  082%=      5-min Rain = 0
KAHS 231720Z 07008KT 18/15 A3004 RMK A01 T01800148  RH  082%=      5-min Rain = 0
KAHS 231721Z 06007KT 18/15 A3004 RMK A01 T01780146  RH  082%=      5-min Rain = 0
KAHS 231722Z 09006KT 18/15 A3004 RMK A01 T01770146  RH  082%=      5-min Rain = 0
KAHS 231723Z 06004KT 18/15 A3004 RMK A01 T01780151  RH  084%=      5-min Rain = 0
KAHS 231724Z 07005KT 18/15 A3004 RMK A01 T01780152  RH  084%=      5-min Rain = 0
KAHS 231725Z 06006KT 18/15 A3004 RMK A01 T01780150  RH  084%=      5-min Rain = 0
KAHS 231726Z 04007KT 18/15 A3004 RMK A01 T01780148  RH  083%=      5-min Rain = 0
KAHS 231727Z 05007KT 18/15 A3004 RMK A01 T01770147  RH  082%=      5-min Rain = 0
KAHS 231728Z 04006KT 18/15 A3004 RMK A01 T01770148  RH  083%=      5-min Rain = 0
KAHS 231729Z 03007KT 18/15 A3004 RMK A01 T01770147  RH  082%=      5-min Rain = 0
KAHS 231730Z 04006KT 18/15 A3004 RMK A01 T01770147  RH  082%=      5-min Rain = 0
KAHS 231731Z 04005KT 18/15 A3004 RMK A01 T01780146  RH  082%=      5-min Rain = 0
KAHS 231732Z 03005KT 18/15 A3004 RMK A01 T01800150  RH  083%=      5-min Rain = 0
KAHS 231733Z 03005KT 18/15 A3004 RMK A01 T01830153  RH  082%=      5-min Rain = 0
KAHS 231734Z 03005KT 18/15 A3004 RMK A01 T01840151  RH  081%=      5-min Rain = 0
KAHS 231735Z 05008KT 19/15 A3004 RMK A01 T01850151  RH  081%=      5-min Rain = 0
KAHS 231736Z 06007KT 18/15 A3004 RMK A01 T01840148  RH  080%=      5-min Rain = 0
KAHS 231737Z 05007KT 18/15 A3004 RMK A01 T01820147  RH  080%=      5-min Rain = 0
KAHS 231738Z 06005KT 18/15 A3004 RMK A01 T01810147  RH  080%=      5-min Rain = 0
KAHS 231739Z 08008KT 18/15 A3004 RMK A01 T01820149  RH  081%=      5-min Rain = 0
KAHS 231740Z 07007KT 18/15 A3004 RMK A01 T01820145  RH  079%=      5-min Rain = 0
KAHS 231741Z 07006KT 18/15 A3004 RMK A01 T01840147  RH  079%=      5-min Rain = 0
KAHS 231742Z 07006KT 19/15 A3004 RMK A01 T01860148  RH  079%=      5-min Rain = 0
KAHS 231743Z 04005KT 19/15 A3004 RMK A01 T01870150  RH  079%=      5-min Rain = 0
KAHS 231744Z 05005KT 19/15 A3004 RMK A01 T01890149  RH  077%=      5-min Rain = 0
KAHS 231745Z 05006KT 19/15 A3004 RMK A01 T01920154  RH  078%=      5-min Rain = 0
KAHS 231746Z 04006KT 20/15 A3004 RMK A01 T01950153  RH  076%=      5-min Rain = 0
KAHS 231747Z 06007KT 19/15 A3004 RMK A01 T01940148  RH  075%=      5-min Rain = 0
KAHS 231748Z 07006KT 19/15 A3004 RMK A01 T01910146  RH  075%=      5-min Rain = 0
KAHS 231749Z 06007KT 19/14 A3004 RMK A01 T01890144  RH  075%=      5-min Rain = 0
KAHS 231750Z 08006KT 19/14 A3004 RMK A01 T01880143  RH  075%=      5-min Rain = 0
KAHS 231751Z 09004KT 19/15 A3004 RMK A01 T01880146  RH  076%=      5-min Rain = 0
KAHS 231752Z 09005KT 19/15 A3004 RMK A01 T01900150  RH  078%=      5-min Rain = 0
KAHS 231753Z 07006KT 19/15 A3004 RMK A01 T01890147  RH  076%=      5-min Rain = 0
KAHS 231754Z 06007KT 19/15 A3004 RMK A01 T01890150  RH  078%=      5-min Rain = 0
KAHS 231755Z 08006KT 19/15 A3004 RMK A01 T01900150  RH  077%=      5-min Rain = 0
KAHS 231756Z 05008KT 19/15 A3004 RMK A01 T01890149  RH  077%=      5-min Rain = 0
KAHS 231757Z 05007KT 19/15 A3004 RMK A01 T01890150  RH  078%=      5-min Rain = 0
KAHS 231758Z 05006KT 19/14 A3004 RMK A01 T01870144  RH  076%=      5-min Rain = 0
KAHS 231759Z 03005KT 19/15 A3004 RMK A01 T01860145  RH  077%=      5-min Rain = 0
KAHS 231800Z 04006KT 19/15 A3004 RMK A01 T01870147  RH  078%=      5-min Rain = 0
KAHS 231801Z 04005KT 19/15 A3003 RMK A01 T01890149  RH  077%=      5-min Rain = 0
KAHS 231802Z 04006KT 19/15 A3003 RMK A01 T01900147  RH  076%=      5-min Rain = 0
KAHS 231803Z 05006KT 19/14 A3003 RMK A01 T01880144  RH  076%=      5-min Rain = 0
KAHS 231804Z 04005KT 19/15 A3003 RMK A01 T01870145  RH  076%=      5-min Rain = 0
KAHS 231805Z 03005KT 19/15 A3003 RMK A01 T01890151  RH  078%=      5-min Rain = 0
KAHS 231806Z 04008KT 19/15 A3003 RMK A01 T01920151  RH  077%=      5-min Rain = 0
KAHS 231807Z 04008KT 19/15 A3003 RMK A01 T01920149  RH  076%=      5-min Rain = 0
KAHS 231808Z 04009KT 19/15 A3003 RMK A01 T01900146  RH  075%=      5-min Rain = 0
KAHS 231809Z 05009KT 19/15 A3003 RMK A01 T01900148  RH  077%=      5-min Rain = 0
KAHS 231810Z 04007KT 19/15 A3003 RMK A01 T01910151  RH  078%=      5-min Rain = 0
KAHS 231811Z 06010KT 19/15 A3003 RMK A01 T01910151  RH  077%=      5-min Rain = 0
KAHS 231812Z 05007KT 19/15 A3003 RMK A01 T01890146  RH  076%=      5-min Rain = 0
KAHS 231813Z 04004KT 19/15 A3003 RMK A01 T01880146  RH  076%=      5-min Rain = 0
KAHS 231814Z 04004KT 19/15 A3003 RMK A01 T01900152  RH  079%=      5-min Rain = 0
KAHS 231815Z 03010KT 19/15 A3003 RMK A01 T01910152  RH  078%=      5-min Rain = 0
KAHS 231816Z 05010KT 19/15 A3003 RMK A01 T01900148  RH  077%=      5-min Rain = 0
KAHS 231817Z 04010KT 19/15 A3003 RMK A01 T01890148  RH  077%=      5-min Rain = 0
KAHS 231818Z 04008KT 19/15 A3003 RMK A01 T01870146  RH  077%=      5-min Rain = 0
KAHS 231819Z 04008KT 19/15 A3003 RMK A01 T01890151  RH  079%=      5-min Rain = 0
KAHS 231820Z 03007KT 19/15 A3003 RMK A01 T01900150  RH  077%=      5-min Rain = 0
KAHS 231821Z 04007KT 19/15 A3003 RMK A01 T01940154  RH  078%=      5-min Rain = 0
KAHS 231822Z 05007KT 20/15 A3003 RMK A01 T01960152  RH  076%=      5-min Rain = 0
KAHS 231823Z 03007KT 20/15 A3003 RMK A01 T01960151  RH  075%=      5-min Rain = 0
KAHS 231824Z 03007KT 20/15 A3003 RMK A01 T01950148  RH  074%=      5-min Rain = 0
KAHS 231825Z 02005KT 19/15 A3003 RMK A01 T01940151  RH  076%=      5-min Rain = 0
KAHS 231826Z 04007KT 20/15 A3003 RMK A01 T01960150  RH  075%=      5-min Rain = 0
KAHS 231827Z 03006KT 20/15 A3003 RMK A01 T01970145  RH  072%=      5-min Rain = 0
KAHS 231828Z 02008KT 20/15 A3003 RMK A01 T01990150  RH  073%=      5-min Rain = 0
KAHS 231829Z 02006KT 20/15 A3003 RMK A01 T02000147  RH  072%=      5-min Rain = 0
KAHS 231830Z 02007KT 20/15 A3003 RMK A01 T02000147  RH  071%=      5-min Rain = 0
KAHS 231831Z 01007KT 20/14 A3003 RMK A01 T01980143  RH  070%=      5-min Rain = 0
KAHS 231832Z 02009KT 20/15 A3003 RMK A01 T01980147  RH  072%=      5-min Rain = 0
KAHS 231833Z 03009KT 20/14 A3003 RMK A01 T01970144  RH  071%=      5-min Rain = 0
KAHS 231834Z 03007KT 20/15 A3003 RMK A01 T01960145  RH  072%=      5-min Rain = 0
KAHS 231835Z 04006KT 20/15 A3002 RMK A01 T01970147  RH  073%=      5-min Rain = 0
KAHS 231836Z 03006KT 20/14 A3002 RMK A01 T01970143  RH  071%=      5-min Rain = 0
KAHS 231837Z 03006KT 20/14 A3002 RMK A01 T01970143  RH  071%=      5-min Rain = 0
KAHS 231838Z 04007KT 20/15 A3002 RMK A01 T01980148  RH  073%=      5-min Rain = 0
KAHS 231839Z 05007KT 20/15 A3002 RMK A01 T01990151  RH  074%=      5-min Rain = 0
KAHS 231840Z 04007KT 20/15 A3002 RMK A01 T02000146  RH  071%=      5-min Rain = 0
KAHS 231841Z 02005KT 20/14 A3002 RMK A01 T01990142  RH  070%=      5-min Rain = 0
KAHS 231842Z 02006G11KT 20/14 A3002 RMK A01 T01990143  RH  070%=      5-min Rain = 0
KAHS 231843Z 04010KT 20/15 A3002 RMK A01 T02000147  RH  071%=      5-min Rain = 0
KAHS 231844Z 03008KT 20/14 A3002 RMK A01 T02000144  RH  070%=      5-min Rain = 0
KAHS 231845Z 02005KT 20/14 A3002 RMK A01 T01990143  RH  070%=      5-min Rain = 0
KAHS 231846Z 04002KT 20/14 A3002 RMK A01 T01980141  RH  070%=      5-min Rain = 0
KAHS 231847Z 05002KT 20/14 A3002 RMK A01 T01980144  RH  071%=      5-min Rain = 0
KAHS 231848Z 02007KT 20/15 A3002 RMK A01 T01990145  RH  071%=      5-min Rain = 0
KAHS 231849Z 02006KT 20/15 A3002 RMK A01 T02010150  RH  072%=      5-min Rain = 0
KAHS 231850Z 02008KT 20/15 A3002 RMK A01 T02020149  RH  071%=      5-min Rain = 0
KAHS 231851Z 04005KT 20/14 A3002 RMK A01 T02000144  RH  070%=      5-min Rain = 0
KAHS 231852Z 03008KT 20/15 A3002 RMK A01 T01990146  RH  071%=      5-min Rain = 0
KAHS 231853Z 03009KT 20/15 A3002 RMK A01 T01970145  RH  072%=      5-min Rain = 0
KAHS 231854Z 02008KT 20/15 A3002 RMK A01 T01960145  RH  072%=      5-min Rain = 0
KAHS 231855Z 02009KT 19/14 A3002 RMK A01 T01940143  RH  072%=      5-min Rain = 0
KAHS 231856Z 01004KT 19/15 A3002 RMK A01 T01940145  RH  073%=      5-min Rain = 0
KAHS 231857Z 34005KT 20/15 A3001 RMK A01 T01950145  RH  073%=      5-min Rain = 0
KAHS 231858Z 35008KT 19/14 A3001 RMK A01 T01940144  RH  073%=      5-min Rain = 0
KAHS 231859Z 04006KT 20/15 A3001 RMK A01 T01950148  RH  074%=      5-min Rain = 0
KAHS 231900Z 05004KT 20/15 A3001 RMK A01 T01960150  RH  075%=      5-min Rain = 0
KAHS 231901Z 04005KT 20/15 A3001 RMK A01 T01960146  RH  073%=      5-min Rain = 0
KAHS 231902Z 04004KT 20/15 A3001 RMK A01 T01960147  RH  073%=      5-min Rain = 0
KAHS 231903Z 04007KT 20/15 A3001 RMK A01 T01980149  RH  073%=      5-min Rain = 0
KAHS 231904Z 04007KT 20/15 A3001 RMK A01 T01990148  RH  073%=      5-min Rain = 0
KAHS 231905Z 04008KT 20/15 A3001 RMK A01 T02010151  RH  073%=      5-min Rain = 0
KAHS 231906Z 06007KT 20/15 A3001 RMK A01 T02020149  RH  072%=      5-min Rain = 0
KAHS 231907Z 07006KT 20/15 A3001 RMK A01 T02010148  RH  071%=      5-min Rain = 0
KAHS 231908Z 07005KT 20/15 A3001 RMK A01 T02000146  RH  071%=      5-min Rain = 0
KAHS 231909Z 04006KT 20/15 A3001 RMK A01 T02010153  RH  074%=      5-min Rain = 0
KAHS 231910Z 05009KT 20/15 A3001 RMK A01 T02030154  RH  073%=      5-min Rain = 0
KAHS 231911Z 04011KT 20/15 A3001 RMK A01 T02010149  RH  072%=      5-min Rain = 0
KAHS 231912Z 04010KT 20/15 A3001 RMK A01 T01980146  RH  072%=      5-min Rain = 0
KAHS 231913Z 03010KT 20/15 A3001 RMK A01 T01970148  RH  073%=      5-min Rain = 0
KAHS 231914Z 03008KT 20/15 A3001 RMK A01 T01970147  RH  073%=      5-min Rain = 0
KAHS 231915Z 03007KT 20/15 A3001 RMK A01 T01960147  RH  073%=      5-min Rain = 0
KAHS 231916Z 04007KT 20/15 A3001 RMK A01 T01970149  RH  074%=      5-min Rain = 0
KAHS 231917Z 08009KT 20/15 A3001 RMK A01 T01970147  RH  073%=      5-min Rain = 0
KAHS 231918Z 08007KT 20/14 A3001 RMK A01 T01960144  RH  072%=      5-min Rain = 0
KAHS 231919Z 08011KT 20/15 A3001 RMK A01 T01960146  RH  073%=      5-min Rain = 0
KAHS 231920Z 08008KT 20/14 A3001 RMK A01 T01950144  RH  072%=      5-min Rain = 0
KAHS 231921Z 08010KT 19/14 A3001 RMK A01 T01940144  RH  073%=      5-min Rain = 0
KAHS 231922Z 07008KT 19/15 A3001 RMK A01 T01940145  RH  073%=      5-min Rain = 0
KAHS 231923Z 07008KT 19/15 A3001 RMK A01 T01940146  RH  074%=      5-min Rain = 0
KAHS 231924Z 05008KT 20/15 A3001 RMK A01 T01950149  RH  075%=      5-min Rain = 0
KAHS 231925Z 05010KT 20/15 A3001 RMK A01 T01950148  RH  075%=      5-min Rain = 0
KAHS 231926Z 04009KT 19/15 A3001 RMK A01 T01940149  RH  075%=      5-min Rain = 0
KAHS 231927Z 07008KT 19/15 A3001 RMK A01 T01940147  RH  075%=      5-min Rain = 0
KAHS 231928Z 07009KT 19/15 A3001 RMK A01 T01930145  RH  074%=      5-min Rain = 0
KAHS 231929Z 07007KT 19/15 A3001 RMK A01 T01930146  RH  074%=      5-min Rain = 0
KAHS 231930Z 08008KT 19/14 A3001 RMK A01 T01920144  RH  074%=      5-min Rain = 0
KAHS 231931Z 08010KT 19/14 A3001 RMK A01 T01910142  RH  073%=      5-min Rain = 0
KAHS 231932Z 08007KT 19/14 A3001 RMK A01 T01910144  RH  074%=      5-min Rain = 0
KAHS 231933Z 07008KT 19/15 A3001 RMK A01 T01930148  RH  075%=      5-min Rain = 0
KAHS 231934Z 06006KT 19/15 A3001 RMK A01 T01940147  RH  074%=      5-min Rain = 0
KAHS 231935Z 05008KT 20/15 A3001 RMK A01 T01950149  RH  075%=      5-min Rain = 0
KAHS 231936Z 05009KT 20/15 A3001 RMK A01 T01950147  RH  073%=      5-min Rain = 0
KAHS 231937Z 06008KT 20/15 A3001 RMK A01 T01950146  RH  073%=      5-min Rain = 0
KAHS 231938Z 07008KT 20/15 A3001 RMK A01 T01950146  RH  073%=      5-min Rain = 0
KAHS 231939Z 06010KT 20/15 A3001 RMK A01 T01950146  RH  073%=      5-min Rain = 0
KAHS 231940Z 07010KT 20/15 A3001 RMK A01 T01950145  RH  073%=      5-min Rain = 0
KAHS 231941Z 07010KT 19/14 A3001 RMK A01 T01940142  RH  072%=      5-min Rain = 0
KAHS 231942Z 06008KT 19/14 A3001 RMK A01 T01940142  RH  072%=      5-min Rain = 0
KAHS 231943Z 07005KT 20/14 A3001 RMK A01 T01950143  RH  072%=      5-min Rain = 0
KAHS 231944Z 07006KT 20/15 A3001 RMK A01 T01970150  RH  074%=      5-min Rain = 0
KAHS 231945Z 05007KT 20/15 A3001 RMK A01 T01980147  RH  072%=      5-min Rain = 0
KAHS 231946Z 06009KT 20/15 A3001 RMK A01 T01990149  RH  073%=      5-min Rain = 0
KAHS 231947Z 05008KT 20/14 A3001 RMK A01 T01980144  RH  071%=      5-min Rain = 0
KAHS 231948Z 06009KT 20/14 A3001 RMK A01 T01970144  RH  072%=      5-min Rain = 0
KAHS 231949Z 05007KT 20/14 A3001 RMK A01 T01960144  RH  072%=      5-min Rain = 0
KAHS 231950Z 04006KT 20/14 A3001 RMK A01 T01950143  RH  072%=      5-min Rain = 0
KAHS 231951Z 04007KT 20/15 A3001 RMK A01 T01970147  RH  073%=      5-min Rain = 0
KAHS 231952Z 06007KT 20/15 A3001 RMK A01 T01990152  RH  074%=      5-min Rain = 0
KAHS 231953Z 05008KT 20/15 A30 RMK A01 T02000146  RH  071%=      5-min Rain = 0
KAHS 231954Z 05009KT 20/15 A30 RMK A01 T02000148  RH  072%=      5-min Rain = 0
KAHS 231955Z 05009KT 20/15 A30 RMK A01 T02010148  RH  072%=      5-min Rain = 0
KAHS 231956Z 07008KT 20/15 A30 RMK A01 T02020150  RH  072%=      5-min Rain = 0
KAHS 231957Z 07009KT 20/15 A30 RMK A01 T02020150  RH  072%=      5-min Rain = 0
KAHS 231958Z 08009KT 20/15 A30 RMK A01 T02010147  RH  071%=      5-min Rain = 0
KAHS 231959Z 08007KT 20/14 A30 RMK A01 T01990143  RH  070%=      5-min Rain = 0
KAHS 232000Z 07007KT 20/15 A30 RMK A01 T01980146  RH  072%=      5-min Rain = 0
KAHS 232001Z 06007KT 20/14 A30 RMK A01 T01970144  RH  071%=      5-min Rain = 0
KAHS 232002Z 05007KT 20/15 A30 RMK A01 T01980148  RH  073%=      5-min Rain = 0
KAHS 232003Z 07009KT 20/15 A30 RMK A01 T01980149  RH  073%=      5-min Rain = 0
KAHS 232004Z 08009KT 20/15 A30 RMK A01 T01970148  RH  073%=      5-min Rain = 0
KAHS 232005Z 07009KT 20/15 A30 RMK A01 T01970148  RH  073%=      5-min Rain = 0
KAHS 232006Z 06008KT 20/15 A30 RMK A01 T01970148  RH  073%=      5-min Rain = 0
KAHS 232007Z 06006KT 20/15 A30 RMK A01 T01980149  RH  073%=      5-min Rain = 0
KAHS 232008Z 07007KT 20/15 A30 RMK A01 T01970148  RH  073%=      5-min Rain = 0
KAHS 232009Z 06007KT 20/15 A30 RMK A01 T01970148  RH  073%=      5-min Rain = 0
KAHS 232010Z 06004KT 20/15 A30 RMK A01 T01980151  RH  074%=      5-min Rain = 0
KAHS 232011Z 08006KT 20/15 A30 RMK A01 T01980149  RH  073%=      5-min Rain = 0
KAHS 232012Z 08007KT 20/14 A30 RMK A01 T01980144  RH  071%=      5-min Rain = 0
KAHS 232013Z 07006KT 20/15 A30 RMK A01 T01970145  RH  072%=      5-min Rain = 0
KAHS 232014Z 07007KT 20/15 A30 RMK A01 T01980148  RH  073%=      5-min Rain = 0
KAHS 232015Z 07008KT 20/15 A30 RMK A01 T01970147  RH  073%=      5-min Rain = 0
KAHS 232016Z 06006KT 20/15 A30 RMK A01 T01970146  RH  072%=      5-min Rain = 0
KAHS 232017Z 06006KT 20/15 A30 RMK A01 T01980149  RH  073%=      5-min Rain = 0
KAHS 232018Z 04006KT 20/15 A30 RMK A01 T01980148  RH  073%=      5-min Rain = 0
KAHS 232019Z 05005KT 20/15 A30 RMK A01 T01970145  RH  072%=      5-min Rain = 0
KAHS 232020Z 05007KT 20/15 A30 RMK A01 T01980148  RH  073%=      5-min Rain = 0
KAHS 232021Z 05007KT 20/15 A30 RMK A01 T01980146  RH  072%=      5-min Rain = 0
KAHS 232022Z 05007KT 20/15 A30 RMK A01 T01970145  RH  072%=      5-min Rain = 0
KAHS 232023Z 05008KT 20/14 A30 RMK A01 T01970144  RH  072%=      5-min Rain = 0
KAHS 232024Z 05006KT 20/14 A30 RMK A01 T01970144  RH  072%=      5-min Rain = 0
KAHS 232025Z 06007KT 20/15 A30 RMK A01 T01990148  RH  073%=      5-min Rain = 0
KAHS 232026Z 07009KT 20/15 A30 RMK A01 T01990146  RH  072%=      5-min Rain = 0
KAHS 232027Z 07009KT 20/15 A30 RMK A01 T01980145  RH  071%=      5-min Rain = 0
KAHS 232028Z 06006KT 20/14 A2999 RMK A01 T01970142  RH  071%=      5-min Rain = 0
KAHS 232029Z 07006KT 20/15 A2999 RMK A01 T01980148  RH  073%=      5-min Rain = 0
KAHS 232030Z 07007KT 20/15 A2999 RMK A01 T01990149  RH  073%=      5-min Rain = 0
KAHS 232031Z 06007KT 20/15 A2999 RMK A01 T01990147  RH  072%=      5-min Rain = 0
KAHS 232032Z 07008KT 20/15 A2999 RMK A01 T01990146  RH  071%=      5-min Rain = 0
KAHS 232033Z 06007KT 20/15 A2999 RMK A01 T02000148  RH  072%=      5-min Rain = 0
KAHS 232034Z 06006KT 20/15 A2999 RMK A01 T02020146  RH  071%=      5-min Rain = 0
KAHS 232035Z 05007KT 20/15 A2999 RMK A01 T02040151  RH  072%=      5-min Rain = 0
KAHS 232036Z 06009KT 21/15 A2999 RMK A01 T02060148  RH  069%=      5-min Rain = 0
KAHS 232037Z 06007KT 21/15 A2999 RMK A01 T02050147  RH  069%=      5-min Rain = 0
KAHS 232038Z 07005KT 21/15 A2999 RMK A01 T02070151  RH  070%=      5-min Rain = 0
KAHS 232039Z 08008KT 21/15 A2999 RMK A01 T02090152  RH  070%=      5-min Rain = 0
KAHS 232040Z 06008KT 21/15 A2999 RMK A01 T02070146  RH  068%=      5-min Rain = 0
KAHS 232041Z 06009KT 21/15 A2999 RMK A01 T02050148  RH  070%=      5-min Rain = 0
KAHS 232042Z 07011KT 20/15 A2999 RMK A01 T02040147  RH  070%=      5-min Rain = 0
KAHS 232043Z 07010KT 20/15 A2999 RMK A01 T02030148  RH  071%=      5-min Rain = 0
KAHS 232044Z 07010KT 20/15 A2999 RMK A01 T02020146  RH  070%=      5-min Rain = 0
KAHS 232045Z 08007KT 20/15 A2999 RMK A01 T02000147  RH  071%=      5-min Rain = 0
KAHS 232046Z 09007KT 20/15 A2999 RMK A01 T02010147  RH  071%=      5-min Rain = 0
KAHS 232047Z 07008KT 20/14 A2999 RMK A01 T01990144  RH  071%=      5-min Rain = 0
KAHS 232048Z 06008KT 20/15 A2999 RMK A01 T01990146  RH  071%=      5-min Rain = 0
KAHS 232049Z 06008KT 20/15 A2999 RMK A01 T01980146  RH  072%=      5-min Rain = 0
KAHS 232050Z 06008KT 20/14 A2999 RMK A01 T01970144  RH  071%=      5-min Rain = 0
KAHS 232051Z 06006KT 20/15 A2999 RMK A01 T01970146  RH  073%=      5-min Rain = 0
KAHS 232052Z 06006KT 20/15 A2999 RMK A01 T01970146  RH  073%=      5-min Rain = 0
KAHS 232053Z 06007KT 20/15 A2999 RMK A01 T01960145  RH  072%=      5-min Rain = 0
KAHS 232054Z 06008KT 20/14 A2999 RMK A01 T01950144  RH  072%=      5-min Rain = 0
KAHS 232055Z 04009KT 20/15 A2999 RMK A01 T01950145  RH  073%=      5-min Rain = 0
KAHS 232056Z 05008KT 20/15 A2999 RMK A01 T01950147  RH  074%=      5-min Rain = 0
KAHS 232057Z 06007KT 19/15 A2999 RMK A01 T01940146  RH  074%=      5-min Rain = 0
KAHS 232058Z 04007KT 19/15 A2999 RMK A01 T01940148  RH  075%=      5-min Rain = 0
KAHS 232059Z 06007KT 19/15 A2999 RMK A01 T01940147  RH  074%=      5-min Rain = 0
KAHS 232100Z 06009KT 19/15 A2999 RMK A01 T01940146  RH  074%=      5-min Rain = 0
KAHS 232101Z 06010KT 19/14 A2999 RMK A01 T01930144  RH  073%=      5-min Rain = 0
KAHS 232102Z 06009KT 19/14 A2998 RMK A01 T01920143  RH  073%=      5-min Rain = 0
KAHS 232103Z 05008KT 19/14 A2998 RMK A01 T01920144  RH  073%=      5-min Rain = 0
KAHS 232104Z 05006KT 19/14 A2998 RMK A01 T01920144  RH  074%=      5-min Rain = 0
KAHS 232105Z 05006KT 19/15 A2998 RMK A01 T01930147  RH  075%=      5-min Rain = 0
KAHS 232106Z 05007KT 19/15 A2998 RMK A01 T01930146  RH  074%=      5-min Rain = 0
KAHS 232107Z 03006KT 19/15 A2998 RMK A01 T01930146  RH  074%=      5-min Rain = 0
KAHS 232108Z 04008KT 19/15 A2998 RMK A01 T01930146  RH  074%=      5-min Rain = 0
KAHS 232109Z 05007KT 19/15 A2998 RMK A01 T01930146  RH  074%=      5-min Rain = 0
KAHS 232110Z 05009KT 19/15 A2998 RMK A01 T01930147  RH  075%=      5-min Rain = 0
KAHS 232111Z 05007KT 19/15 A2998 RMK A01 T01930148  RH  075%=      5-min Rain = 0
KAHS 232112Z 05008KT 19/15 A2998 RMK A01 T01920147  RH  075%=      5-min Rain = 0
KAHS 232113Z 05009KT 19/15 A2998 RMK A01 T01920145  RH  074%=      5-min Rain = 0
KAHS 232114Z 05009KT 19/15 A2998 RMK A01 T01910145  RH  074%=      5-min Rain = 0
KAHS 232115Z 04009KT 19/15 A2998 RMK A01 T01910145  RH  075%=      5-min Rain = 0
KAHS 232116Z 04009KT 19/15 A2998 RMK A01 T01910146  RH  075%=      5-min Rain = 0
KAHS 232117Z 05010KT 19/15 A2998 RMK A01 T01900145  RH  075%=      5-min Rain = 0
KAHS 232118Z 04008KT 19/15 A2998 RMK A01 T01900145  RH  075%=      5-min Rain = 0
KAHS 232119Z 04009KT 19/15 A2998 RMK A01 T01900147  RH  076%=      5-min Rain = 0
KAHS 232120Z 03008KT 19/15 A2998 RMK A01 T01900146  RH  076%=      5-min Rain = 0
KAHS 232121Z 03009KT 19/15 A2998 RMK A01 T01890146  RH  076%=      5-min Rain = 0
KAHS 232122Z 04006KT 19/15 A2998 RMK A01 T01890146  RH  076%=      5-min Rain = 0
KAHS 232123Z 04009KT 19/15 A2998 RMK A01 T01890148  RH  077%=      5-min Rain = 0
KAHS 232124Z 04010KT 19/14 A2997 RMK A01 T01890144  RH  075%=      5-min Rain = 0
KAHS 232125Z 04009KT 19/15 A2997 RMK A01 T01890145  RH  076%=      5-min Rain = 0
KAHS 232126Z 05011KT 19/15 A2997 RMK A01 T01890146  RH  076%=      5-min Rain = 0
KAHS 232127Z 04010KT 19/15 A2997 RMK A01 T01890145  RH  075%=      5-min Rain = 0
KAHS 232128Z 03010KT 19/15 A2997 RMK A01 T01890145  RH  076%=      5-min Rain = 0
KAHS 232129Z 02010KT 19/15 A2997 RMK A01 T01880145  RH  076%=      5-min Rain = 0
KAHS 232130Z 02012KT 19/14 A2997 RMK A01 T01870144  RH  076%=      5-min Rain = 0
KAHS 232131Z 02011KT 19/14 A2997 RMK A01 T01870144  RH  076%=      5-min Rain = 0
KAHS 232132Z 02010KT 19/14 A2997 RMK A01 T01860144  RH  077%=      5-min Rain = 0
KAHS 232133Z 02011KT 19/15 A2997 RMK A01 T01850145  RH  077%=      5-min Rain = 0
KAHS 232134Z 02012KT 18/14 A2997 RMK A01 T01840142  RH  077%=      5-min Rain = 0
KAHS 232135Z 02013KT 18/14 A2997 RMK A01 T01840142  RH  077%=      5-min Rain = 0
KAHS 232136Z 02013G18KT 18/14 A2997 RMK A01 T01830143  RH  077%=      5-min Rain = 0
KAHS 232137Z 02015KT 18/14 A2997 RMK A01 T01820144  RH  078%=      5-min Rain = 0
KAHS 232138Z 02015KT 18/15 A2997 RMK A01 T01800145  RH  080%=      5-min Rain = 0
KAHS 232139Z 02013KT 18/15 A2997 RMK A01 T01780146  RH  081%=      5-min Rain = 0
KAHS 232140Z 02014KT 18/15 A2997 RMK A01 T01770146  RH  082%=      5-min Rain = 0
KAHS 232141Z 02015KT 18/15 A2997 RMK A01 T01750146  RH  083%=      5-min Rain = 0
KAHS 232142Z 02014KT 17/15 A2997 RMK A01 T01740145  RH  083%=      5-min Rain = 0
KAHS 232143Z 01014KT 17/15 A2997 RMK A01 T01730146  RH  084%=      5-min Rain = 0
KAHS 232144Z 02015KT 17/15 A2997 RMK A01 T01720145  RH  084%=      5-min Rain = 0
KAHS 232145Z 01015KT 17/14 A2997 RMK A01 T01710144  RH  084%=      5-min Rain = 0
KAHS 232146Z 02015KT 17/14 A2997 RMK A01 T01700143  RH  085%=      5-min Rain = 0
KAHS 232147Z 02016KT 17/14 A2997 RMK A01 T01680142  RH  085%=      5-min Rain = 0
KAHS 232148Z 02014KT 17/14 A2997 RMK A01 T01680143  RH  085%=      5-min Rain = 0
KAHS 232149Z 02014KT 17/14 A2997 RMK A01 T01680143  RH  086%=      5-min Rain = 0
KAHS 232150Z 02016G21KT 17/14 A2997 RMK A01 T01670143  RH  086%=      5-min Rain = 0
KAHS 232151Z 02015KT 17/14 A2997 RMK A01 T01660141  RH  085%=      5-min Rain = 0
KAHS 232152Z 02016KT 17/14 A2997 RMK A01 T01650141  RH  086%=      5-min Rain = 0
KAHS 232153Z 02017KT 16/14 A2997 RMK A01 T01640140  RH  086%=      5-min Rain = 0
KAHS 232154Z 01013G18KT 16/14 A2997 RMK A01 T01620139  RH  086%=      5-min Rain = 0
KAHS 232155Z 02016KT 16/14 A2997 RMK A01 T01620139  RH  087%=      5-min Rain = 0
KAHS 232156Z 01016KT 16/14 A2997 RMK A01 T01600138  RH  087%=      5-min Rain = 0
KAHS 232157Z 02017KT 16/14 A2997 RMK A01 T01600138  RH  087%=      5-min Rain = 0
KAHS 232158Z 02015KT 16/14 A2997 RMK A01 T01590138  RH  087%=      5-min Rain = 0
KAHS 232159Z 02014KT 16/14 A2997 RMK A01 T01590138  RH  087%=      5-min Rain = 0
KAHS 232200Z 02015KT 16/14 A2997 RMK A01 T01590138  RH  087%=      5-min Rain = 0
KAHS 232201Z 02013KT 16/14 A2997 RMK A01 T01590138  RH  088%=      5-min Rain = 0
KAHS 232202Z 02016KT 16/14 A2997 RMK A01 T01590139  RH  088%=      5-min Rain = 0
KAHS 232203Z 02017KT 16/14 A2997 RMK A01 T01580137  RH  087%=      5-min Rain = 0
KAHS 232204Z 02016KT 16/14 A2997 RMK A01 T01570136  RH  087%=      5-min Rain = 0
KAHS 232205Z 02015KT 16/14 A2998 RMK A01 T01570137  RH  088%=      5-min Rain = 0
KAHS 232206Z 02016G22KT 16/14 A2997 RMK A01 T01560136  RH  088%=      5-min Rain = 0
KAHS 232207Z 01016KT 16/14 A2997 RMK A01 T01560136  RH  088%=      5-min Rain = 0
KAHS 232208Z 02014KT 16/14 A2997 RMK A01 T01560135  RH  088%=      5-min Rain = 0
KAHS 232209Z 02015KT 16/14 A2998 RMK A01 T01550136  RH  088%=      5-min Rain = 0
KAHS 232210Z 02013G18KT 16/14 A2998 RMK A01 T01550136  RH  088%=      5-min Rain = 0
KAHS 232211Z 02011KT 16/14 A2998 RMK A01 T01560137  RH  088%=      5-min Rain = 0
KAHS 232212Z 02009KT 16/14 A2998 RMK A01 T01570138  RH  089%=      5-min Rain = 0
KAHS 232213Z 02010KT 16/14 A2998 RMK A01 T01570138  RH  089%=      5-min Rain = 0
KAHS 232214Z 02016KT 16/14 A2998 RMK A01 T01560137  RH  088%=      5-min Rain = 0
KAHS 232215Z 03014KT 16/14 A2998 RMK A01 T01560136  RH  088%=      5-min Rain = 0
KAHS 232216Z 03016KT 16/14 A2998 RMK A01 T01550135  RH  088%=      5-min Rain = 0
KAHS 232217Z 03016KT 15/13 A2998 RMK A01 T01540134  RH  088%=      5-min Rain = 0
KAHS 232218Z 03015G20KT 15/14 A2998 RMK A01 T01540135  RH  088%=      5-min Rain = 0
KAHS 232219Z 03016KT 15/13 A2998 RMK A01 T01540134  RH  088%=      5-min Rain = 0
KAHS 232220Z 02015KT 15/13 A2998 RMK A01 T01530134  RH  088%=      5-min Rain = 0
KAHS 232221Z 02014KT 15/13 A2998 RMK A01 T01530134  RH  088%=      5-min Rain = 0
KAHS 232222Z 03016KT 15/13 A2998 RMK A01 T01530134  RH  088%=      5-min Rain = 0
KAHS 232223Z 03016KT 15/13 A2998 RMK A01 T01530133  RH  088%=      5-min Rain = 0
KAHS 232224Z 02016KT 15/13 A2998 RMK A01 T01520132  RH  088%=      5-min Rain = 0
KAHS 232225Z 03015KT 15/13 A2998 RMK A01 T01520133  RH  088%=      5-min Rain = 0
KAHS 232226Z 03014KT 15/13 A2998 RMK A01 T01520134  RH  089%=      5-min Rain = 0
KAHS 232227Z 03012KT 15/14 A2998 RMK A01 T01530135  RH  089%=      5-min Rain = 0
KAHS 232228Z 03011KT 15/14 A2997 RMK A01 T01530135  RH  089%=      5-min Rain = 0
KAHS 232229Z 03014G20KT 15/14 A2997 RMK A01 T01540136  RH  089%=      5-min Rain = 0
KAHS 232230Z 03017KT 15/13 A2997 RMK A01 T01530134  RH  088%=      5-min Rain = 0
KAHS 232231Z 02017KT 15/13 A2997 RMK A01 T01520133  RH  088%=      5-min Rain = 0
KAHS 232232Z 02017KT 15/13 A2997 RMK A01 T01520133  RH  088%=      5-min Rain = 0
KAHS 232233Z 01013KT 15/13 A2997 RMK A01 T01520134  RH  089%=      5-min Rain = 0
KAHS 232234Z 02012KT 15/13 A2997 RMK A01 T01520134  RH  089%=      5-min Rain = 0
KAHS 232235Z 02016KT 15/13 A2997 RMK A01 T01520134  RH  089%=      5-min Rain = 0
KAHS 232236Z 02013KT 15/13 A2997 RMK A01 T01520133  RH  089%=      5-min Rain = 0
KAHS 232237Z 03017KT 15/13 A2997 RMK A01 T01510133  RH  089%=      5-min Rain = 0
KAHS 232238Z 03014KT 15/13 A2997 RMK A01 T01500132  RH  089%=      5-min Rain = 0
KAHS 232239Z 03014KT 15/13 A2997 RMK A01 T01500131  RH  089%=      5-min Rain = 0
KAHS 232240Z 03017G22KT 15/13 A2997 RMK A01 T01490131  RH  089%=      5-min Rain = 0
KAHS 232241Z 03018KT 15/13 A2997 RMK A01 T01480130  RH  089%=      5-min Rain = 0
KAHS 232242Z 03014G19KT 15/13 A2997 RMK A01 T01480130  RH  089%=      5-min Rain = 0
KAHS 232243Z 03017KT 15/13 A2997 RMK A01 T01470130  RH  089%=      5-min Rain = 0
KAHS 232244Z 03016KT 15/13 A2997 RMK A01 T01470130  RH  089%=      5-min Rain = 0
KAHS 232245Z 03016KT 15/13 A2997 RMK A01 T01470130  RH  089%=      5-min Rain = 0
KAHS 232246Z 03017KT 15/13 A2997 RMK A01 T01460129  RH  090%=      5-min Rain = 0
KAHS 232247Z 02014KT 15/13 A2997 RMK A01 T01460130  RH  090%=      5-min Rain = 0
KAHS 232248Z 03014G19KT 15/13 A2997 RMK A01 T01460130  RH  090%=      5-min Rain = 0
KAHS 232249Z 03014KT 15/13 A2997 RMK A01 T01460130  RH  090%=      5-min Rain = 0
KAHS 232250Z 03016KT 15/13 A2997 RMK A01 T01460129  RH  090%=      5-min Rain = 0
KAHS 232251Z 03011KT 15/13 A2997 RMK A01 T01460130  RH  090%=      5-min Rain = 0
KAHS 232252Z 02011G17KT 15/13 A2997 RMK A01 T01460131  RH  090%=      5-min Rain = 0
KAHS 232253Z 02015G21KT 15/13 A2997 RMK A01 T01460130  RH  090%=      5-min Rain = 0
KAHS 232254Z 03017KT 15/13 A2997 RMK A01 T01450128  RH  090%=      5-min Rain = 0
KAHS 232255Z 03014G19KT 15/13 A2997 RMK A01 T01450128  RH  090%=      5-min Rain = 0
KAHS 232256Z 03017KT 15/13 A2997 RMK A01 T01450128  RH  090%=      5-min Rain = 0
KAHS 232257Z 04012G17KT 15/13 A2998 RMK A01 T01450128  RH  090%=      5-min Rain = 0
KAHS 232258Z 03009KT 15/13 A2997 RMK A01 T01460129  RH  090%=      5-min Rain = 0
KAHS 232259Z 03012KT 15/13 A2997 RMK A01 T01460130  RH  090%=      5-min Rain = 0
KAHS 232300Z 02016KT 15/13 A2997 RMK A01 T01460130  RH  090%=      5-min Rain = 0
KAHS 232301Z 03015KT 15/13 A2997 RMK A01 T01460129  RH  089%=      5-min Rain = 0
KAHS 232302Z 02016KT 15/13 A2997 RMK A01 T01460128  RH  089%=      5-min Rain = 0
KAHS 232303Z 02014KT 15/13 A2997 RMK A01 T01460129  RH  089%=      5-min Rain = 0
KAHS 232304Z 03016KT 15/13 A2997 RMK A01 T01460129  RH  089%=      5-min Rain = 0
KAHS 232305Z 03014G19KT 15/13 A2997 RMK A01 T01460129  RH  089%=      5-min Rain = 0
KAHS 232306Z 03015KT 15/13 A2997 RMK A01 T01460129  RH  089%=      5-min Rain = 0
KAHS 232307Z 02014G19KT 15/13 A2998 RMK A01 T01460128  RH  089%=      5-min Rain = 0
KAHS 232308Z 03014KT 15/13 A2998 RMK A01 T01460128  RH  089%=      5-min Rain = 0
KAHS 232309Z 03018KT 15/13 A2998 RMK A01 T01450127  RH  089%=      5-min Rain = 0
KAHS 232310Z 04017KT 15/13 A2999 RMK A01 T01450126  RH  088%=      5-min Rain = 0
KAHS 232311Z 03016KT 14/13 A2999 RMK A01 T01440126  RH  088%=      5-min Rain = 0
KAHS 232312Z 03012KT 14/13 A2999 RMK A01 T01440126  RH  089%=      5-min Rain = 0
KAHS 232313Z 03011KT 15/13 A2999 RMK A01 T01450127  RH  089%=      5-min Rain = 0
KAHS 232314Z 03009G14KT 15/13 A2999 RMK A01 T01450127  RH  089%=      5-min Rain = 0
KAHS 232315Z 03014KT 15/13 A2999 RMK A01 T01450128  RH  089%=      5-min Rain = 0
KAHS 232316Z 03011KT 15/13 A2998 RMK A01 T01450127  RH  089%=      5-min Rain = 0
KAHS 232317Z 03013KT 15/13 A2998 RMK A01 T01450127  RH  089%=      5-min Rain = 0
KAHS 232318Z 03014KT 15/13 A2998 RMK A01 T01450128  RH  089%=      5-min Rain = 0
KAHS 232319Z 03012KT 15/13 A2998 RMK A01 T01450128  RH  089%=      5-min Rain = 0
KAHS 232320Z 03011KT 15/13 A2998 RMK A01 T01450128  RH  090%=      5-min Rain = 0
KAHS 232321Z 02014KT 14/13 A2998 RMK A01 T01440127  RH  089%=      5-min Rain = 0
KAHS 232322Z 02013KT 14/13 A2998 RMK A01 T01440127  RH  089%=      5-min Rain = 0
KAHS 232323Z 02017KT 14/13 A2998 RMK A01 T01440127  RH  089%=      5-min Rain = 0
KAHS 232324Z 03015KT 14/13 A2998 RMK A01 T01430126  RH  089%=      5-min Rain = 0
KAHS 232325Z 02015KT 14/13 A2998 RMK A01 T01430126  RH  090%=      5-min Rain = 0
KAHS 232326Z 03012KT 14/13 A2998 RMK A01 T01430126  RH  090%=      5-min Rain = 0
KAHS 232327Z 02013KT 14/13 A2998 RMK A01 T01430127  RH  090%=      5-min Rain = 0
KAHS 232328Z 02012G17KT 14/13 A2998 RMK A01 T01430127  RH  090%=      5-min Rain = 0
KAHS 232329Z 02014KT 14/13 A2998 RMK A01 T01420126  RH  090%=      5-min Rain = 0
KAHS 232330Z 02013KT 14/13 A2998 RMK A01 T01420126  RH  090%=      5-min Rain = 0
KAHS 232331Z 02014KT 14/13 A2998 RMK A01 T01410126  RH  090%=      5-min Rain = 0
KAHS 232332Z 02016KT 14/13 A2998 RMK A01 T01410125  RH  090%=      5-min Rain = 0
KAHS 232333Z 02014G20KT 14/13 A2998 RMK A01 T01410125  RH  091%=      5-min Rain = 0
KAHS 232334Z 03013KT 14/13 A2998 RMK A01 T01400125  RH  091%=      5-min Rain = 0
KAHS 232335Z 03013KT 14/13 A2998 RMK A01 T01400126  RH  091%=      5-min Rain = 0
KAHS 232336Z 02014G19KT 14/13 A2997 RMK A01 T01400126  RH  091%=      5-min Rain = 0
KAHS 232337Z 02016KT 14/13 A2997 RMK A01 T01400125  RH  091%=      5-min Rain = 0
KAHS 232338Z 02015KT 14/13 A2997 RMK A01 T01400125  RH  091%=      5-min Rain = 0
KAHS 232339Z 02014KT 14/13 A2997 RMK A01 T01400126  RH  091%=      5-min Rain = 0
KAHS 232340Z 02016KT 14/13 A2996 RMK A01 T01410126  RH  091%=      5-min Rain = 0
KAHS 232341Z 02016KT 14/13 A2996 RMK A01 T01400125  RH  091%=      5-min Rain = 0
KAHS 232342Z 02013G19KT 14/13 A2996 RMK A01 T01400126  RH  091%=      5-min Rain = 0
KAHS 232343Z 02012KT 14/13 A2996 RMK A01 T01410126  RH  091%=      5-min Rain = 0
KAHS 232344Z 02014KT 14/13 A2996 RMK A01 T01410126  RH  091%=      5-min Rain = 0
KAHS 232345Z 02014KT 14/13 A2997 RMK A01 T01410125  RH  090%=      5-min Rain = 0
KAHS 232346Z 02013G19KT 14/12 A2997 RMK A01 T01410124  RH  090%=      5-min Rain = 0
KAHS 232347Z 02015KT 14/12 A2997 RMK A01 T01410124  RH  090%=      5-min Rain = 0
KAHS 232348Z 03012G17KT 14/13 A2998 RMK A01 T01410125  RH  090%=      5-min Rain = 0
KAHS 232349Z 03013KT 14/12 A2998 RMK A01 T01410124  RH  089%=      5-min Rain = 0
KAHS 232350Z 03014KT 14/12 A2998 RMK A01 T01410124  RH  089%=      5-min Rain = 0
KAHS 232351Z 03012KT 14/12 A2998 RMK A01 T01410124  RH  089%=      5-min Rain = 0
KAHS 232352Z 03012KT 14/12 A2998 RMK A01 T01410124  RH  089%=      5-min Rain = 0
KAHS 232353Z 04013KT 14/12 A2998 RMK A01 T01410124  RH  089%=      5-min Rain = 0
KAHS 232354Z 03011KT 14/12 A2998 RMK A01 T01420124  RH  089%=      5-min Rain = 0
KAHS 232355Z 02011KT 14/13 A2998 RMK A01 T01420125  RH  089%=      5-min Rain = 0
KAHS 232356Z 03013KT 14/13 A2998 RMK A01 T01420125  RH  089%=      5-min Rain = 0
KAHS 232357Z 03013KT 14/12 A2997 RMK A01 T01420124  RH  089%=      5-min Rain = 0
KAHS 232358Z 02012KT 14/13 A2997 RMK A01 T01420125  RH  089%=      5-min Rain = 0
KAHS 232359Z 02012KT 14/13 A2997 RMK A01 T01420125  RH  089%=      5-min Rain = 0
KAHS 240000Z 03009KT 14/13 A2997 RMK A01 T01420125  RH  089%=      5-min Rain = 0
KAHS 240001Z 03010KT 14/13 A2997 RMK A01 T01430126  RH  089%=      5-min Rain = 0
KAHS 240002Z 03009KT 14/13 A2997 RMK A01 T01430126  RH  089%=      5-min Rain = 0
KAHS 240003Z 03008KT 14/13 A2997 RMK A01 T01430126  RH  089%=      5-min Rain = 0
KAHS 240004Z 03011KT 14/13 A2997 RMK A01 T01430125  RH  089%=      5-min Rain = 0
KAHS 240005Z 03010KT 14/13 A2998 RMK A01 T01430125  RH  089%=      5-min Rain = 0
KAHS 240006Z 02010KT 14/13 A2998 RMK A01 T01430126  RH  089%=      5-min Rain = 0
KAHS 240007Z 02010KT 14/13 A2998 RMK A01 T01430126  RH  089%=      5-min Rain = 0
KAHS 240008Z 02011KT 14/13 A2998 RMK A01 T01430126  RH  089%=      5-min Rain = 0
KAHS 240009Z 02011KT 14/13 A2997 RMK A01 T01430125  RH  089%=      5-min Rain = 0
KAHS 240010Z 02013KT 14/13 A2997 RMK A01 T01430125  RH  089%=      5-min Rain = 0
KAHS 240011Z 02012KT 14/13 A2998 RMK A01 T01420125  RH  089%=      5-min Rain = 0
KAHS 240012Z 02009KT 14/13 A2998 RMK A01 T01420125  RH  089%=      5-min Rain = 0
KAHS 240013Z 02009KT 14/13 A2998 RMK A01 T01420125  RH  089%=      5-min Rain = 0
KAHS 240014Z 03009KT 14/13 A2998 RMK A01 T01430126  RH  090%=      5-min Rain = 0
KAHS 240015Z 03009KT 14/13 A2998 RMK A01 T01430126  RH  090%=      5-min Rain = 0
KAHS 240016Z 02010KT 14/13 A2999 RMK A01 T01430126  RH  089%=      5-min Rain = 0
KAHS 240017Z 04008KT 14/13 A2999 RMK A01 T01430126  RH  089%=      5-min Rain = 0
KAHS 240018Z 04011KT 14/13 A2999 RMK A01 T01430126  RH  089%=      5-min Rain = 0
KAHS 240019Z 04012KT 14/13 A2999 RMK A01 T01420125  RH  089%=      5-min Rain = 0
KAHS 240020Z 04014KT 14/12 A2999 RMK A01 T01420124  RH  089%=      5-min Rain = 0
KAHS 240021Z 04010KT 14/12 A2999 RMK A01 T01420124  RH  089%=      5-min Rain = 0
KAHS 240022Z 05010KT 14/13 A2998 RMK A01 T01420125  RH  089%=      5-min Rain = 0
KAHS 240023Z 04013KT 14/13 A2998 RMK A01 T01420125  RH  089%=      5-min Rain = 0
KAHS 240024Z 05011KT 14/13 A2998 RMK A01 T01420125  RH  089%=      5-min Rain = 0
KAHS 240025Z 04011KT 14/13 A2999 RMK A01 T01420125  RH  089%=      5-min Rain = 0
KAHS 240026Z 04008KT 14/13 A2999 RMK A01 T01420125  RH  089%=      5-min Rain = 0
KAHS 240027Z 05008KT 14/13 A2999 RMK A01 T01420126  RH  090%=      5-min Rain = 0
KAHS 240028Z 05009KT 14/13 A2999 RMK A01 T01420126  RH  090%=      5-min Rain = 0
KAHS 240029Z 05011KT 14/13 A2999 RMK A01 T01420126  RH  090%=      5-min Rain = 0
KAHS 240030Z 05009KT 14/13 A2999 RMK A01 T01420125  RH  089%=      5-min Rain = 0
KAHS 240031Z 05010KT 14/12 A2999 RMK A01 T01420124  RH  089%=      5-min Rain = 0
KAHS 240032Z 05010KT 14/12 A2999 RMK A01 T01420124  RH  089%=      5-min Rain = 0
KAHS 240033Z 04012KT 14/12 A30 RMK A01 T01420124  RH  089%=      5-min Rain = 0
KAHS 240034Z 04012KT 14/12 A30 RMK A01 T01420124  RH  089%=      5-min Rain = 0
KAHS 240035Z 03013KT 14/12 A30 RMK A01 T01420123  RH  089%=      5-min Rain = 0
KAHS 240036Z 03011KT 14/12 A30 RMK A01 T01420123  RH  089%=      5-min Rain = 0
KAHS 240037Z 02014KT 14/12 A3001 RMK A01 T01420123  RH  089%=      5-min Rain = 0
KAHS 240038Z 03013KT 14/12 A30 RMK A01 T01420123  RH  088%=      5-min Rain = 0
KAHS 240039Z 03012KT 14/12 A30 RMK A01 T01420123  RH  088%=      5-min Rain = 0
KAHS 240040Z 02011KT 14/12 A30 RMK A01 T01420123  RH  089%=      5-min Rain = 0
KAHS 240041Z 03010KT 14/12 A30 RMK A01 T01410124  RH  089%=      5-min Rain = 0
KAHS 240042Z 03008KT 14/12 A30 RMK A01 T01410123  RH  089%=      5-min Rain = 0
KAHS 240043Z 02008KT 14/12 A2999 RMK A01 T01410124  RH  089%=      5-min Rain = 0
KAHS 240044Z 03008KT 14/13 A2999 RMK A01 T01420125  RH  090%=      5-min Rain = 0
KAHS 240045Z 04010KT 14/12 A2999 RMK A01 T01410124  RH  090%=      5-min Rain = 0
KAHS 240046Z 03012KT 14/12 A2999 RMK A01 T01410124  RH  089%=      5-min Rain = 0
KAHS 240047Z 03012KT 14/12 A2999 RMK A01 T01410123  RH  089%=      5-min Rain = 0
KAHS 240048Z 03008KT 14/12 A2999 RMK A01 T01410123  RH  089%=      5-min Rain = 0
KAHS 240049Z 02011KT 14/12 A2999 RMK A01 T01410124  RH  089%=      5-min Rain = 0
KAHS 240050Z 03010KT 14/12 A2999 RMK A01 T01410124  RH  089%=      5-min Rain = 0
KAHS 240051Z 02009KT 14/12 A2999 RMK A01 T01410124  RH  089%=      5-min Rain = 0
KAHS 240052Z 02010KT 14/12 A30 RMK A01 T01410124  RH  089%=      5-min Rain = 0
KAHS 240053Z 01011KT 14/12 A30 RMK A01 T01410124  RH  089%=      5-min Rain = 0
KAHS 240054Z 01007KT 14/12 A30 RMK A01 T01410124  RH  089%=      5-min Rain = 0
KAHS 240055Z 02008KT 14/12 A30 RMK A01 T01410124  RH  090%=      5-min Rain = 0
KAHS 240056Z 02010KT 14/13 A30 RMK A01 T01410125  RH  090%=      5-min Rain = 0
KAHS 240057Z 02010KT 14/12 A30 RMK A01 T01410124  RH  090%=      5-min Rain = 0
KAHS 240058Z 01008KT 14/13 A30 RMK A01 T01410125  RH  090%=      5-min Rain = 0
KAHS 240059Z 02007KT 14/13 A3001 RMK A01 T01410125  RH  090%=      5-min Rain = 0
KAHS 240100Z 02007KT 14/12 A3001 RMK A01 T01410124  RH  090%=      5-min Rain = 0
KAHS 240101Z 02008KT 14/12 A3001 RMK A01 T01410124  RH  090%=      5-min Rain = 0
KAHS 240102Z 03009KT 14/12 A30 RMK A01 T01410124  RH  090%=      5-min Rain = 0
KAHS 240103Z 03009KT 14/12 A30 RMK A01 T01400124  RH  090%=      5-min Rain = 0
KAHS 240104Z 03010KT 14/12 A30 RMK A01 T01410124  RH  090%=      5-min Rain = 0
KAHS 240105Z 02009KT 14/12 A30 RMK A01 T01410124  RH  090%=      5-min Rain = 0
KAHS 240106Z 03010KT 14/12 A30 RMK A01 T01410124  RH  090%=      5-min Rain = 0
KAHS 240107Z 03008KT 14/12 A30 RMK A01 T01410124  RH  090%=      5-min Rain = 0
KAHS 240108Z 02008KT 14/12 A30 RMK A01 T01410124  RH  090%=      5-min Rain = 0
KAHS 240109Z 01008KT 14/12 A30 RMK A01 T01410124  RH  090%=      5-min Rain = 0
KAHS 240110Z 03012KT 14/12 A30 RMK A01 T01400124  RH  090%=      5-min Rain = 0
KAHS 240111Z 03011KT 14/12 A30 RMK A01 T01400123  RH  090%=      5-min Rain = 0
KAHS 240112Z 03011KT 14/12 A2999 RMK A01 T01400123  RH  090%=      5-min Rain = 0
KAHS 240113Z 04012KT 14/12 A2999 RMK A01 T01400123  RH  090%=      5-min Rain = 0
KAHS 240114Z 03009KT 14/12 A2999 RMK A01 T01400123  RH  090%=      5-min Rain = 0
KAHS 240115Z 03011KT 14/12 A2999 RMK A01 T01400123  RH  090%=      5-min Rain = 0
KAHS 240116Z 03008KT 14/12 A2999 RMK A01 T01400123  RH  090%=      5-min Rain = 0
KAHS 240117Z 03008KT 14/12 A2999 RMK A01 T01400123  RH  090%=      5-min Rain = 0
KAHS 240118Z 03006KT 14/12 A2999 RMK A01 T01400124  RH  090%=      5-min Rain = 0
KAHS 240119Z 02007KT 14/13 A2999 RMK A01 T01400125  RH  090%=      5-min Rain = 0
KAHS 240120Z 03010KT 14/12 A2999 RMK A01 T01400124  RH  090%=      5-min Rain = 0
KAHS 240121Z 03011KT 14/12 A2999 RMK A01 T01400123  RH  090%=      5-min Rain = 0
KAHS 240122Z 03008KT 14/12 A30 RMK A01 T01400124  RH  090%=      5-min Rain = 0
KAHS 240123Z 02008KT 14/12 A30 RMK A01 T01400124  RH  090%=      5-min Rain = 0
KAHS 240124Z 03007KT 14/12 A30 RMK A01 T01400124  RH  090%=      5-min Rain = 0
KAHS 240125Z 03006KT 14/12 A30 RMK A01 T01400124  RH  090%=      5-min Rain = 0
KAHS 240126Z 03007KT 14/12 A30 RMK A01 T01410124  RH  090%=      5-min Rain = 0
KAHS 240127Z 02009KT 14/12 A30 RMK A01 T01400124  RH  090%=      5-min Rain = 0
KAHS 240128Z 03009KT 14/12 A30 RMK A01 T01400123  RH  090%=      5-min Rain = 0
KAHS 240129Z 03007KT 14/12 A30 RMK A01 T01400123  RH  090%=      5-min Rain = 0
KAHS 240130Z 03006KT 14/12 A2999 RMK A01 T01400123  RH  090%=      5-min Rain = 0
KAHS 240131Z 04007KT 14/12 A2999 RMK A01 T01400123  RH  090%=      5-min Rain = 0
KAHS 240132Z 04010KT 14/12 A2999 RMK A01 T01400124  RH  090%=      5-min Rain = 0
KAHS 240133Z 03010KT 14/12 A2999 RMK A01 T01400123  RH  090%=      5-min Rain = 0
KAHS 240134Z 03009KT 14/12 A2999 RMK A01 T01400123  RH  090%=      5-min Rain = 0
KAHS 240135Z 04009KT 14/12 A2999 RMK A01 T01400123  RH  090%=      5-min Rain = 0
KAHS 240136Z 04009KT 14/12 A2999 RMK A01 T01400123  RH  090%=      5-min Rain = 0
KAHS 240137Z 04010KT 14/12 A2999 RMK A01 T01400123  RH  090%=      5-min Rain = 0
KAHS 240138Z 04008KT 14/12 A2999 RMK A01 T01390123  RH  090%=      5-min Rain = 0
KAHS 240139Z 03007KT 14/12 A2999 RMK A01 T01400124  RH  090%=      5-min Rain = 0
KAHS 240140Z 03007KT 14/12 A2999 RMK A01 T01390124  RH  090%=      5-min Rain = 0
KAHS 240141Z 03008KT 14/12 A2999 RMK A01 T01390124  RH  091%=      5-min Rain = 0
KAHS 240142Z 03009KT 14/12 A2999 RMK A01 T01390124  RH  091%=      5-min Rain = 0
KAHS 240143Z 04008KT 14/12 A2999 RMK A01 T01390124  RH  091%=      5-min Rain = 0
KAHS 240144Z 04008KT 14/12 A2999 RMK A01 T01390124  RH  091%=      5-min Rain = 0
KAHS 240145Z 04007KT 14/12 A2999 RMK A01 T01390124  RH  091%=      5-min Rain = 0
KAHS 240146Z 04009KT 14/12 A2999 RMK A01 T01380124  RH  091%=      5-min Rain = 0
KAHS 240147Z 03007KT 14/12 A2999 RMK A01 T01380124  RH  091%=      5-min Rain = 0
KAHS 240148Z 03009KT 14/13 A2999 RMK A01 T01380125  RH  091%=      5-min Rain = 0
KAHS 240149Z 02008KT 14/13 A30 RMK A01 T01380125  RH  091%=      5-min Rain = 0
KAHS 240150Z 03010KT 14/13 A30 RMK A01 T01380125  RH  092%=      5-min Rain = 0
KAHS 240151Z 03009KT 14/13 A30 RMK A01 T01380125  RH  092%=      5-min Rain = 0
KAHS 240152Z 03009KT 14/13 A30 RMK A01 T01380125  RH  092%=      5-min Rain = 0
KAHS 240153Z 03007KT 14/13 A30 RMK A01 T01380125  RH  092%=      5-min Rain = 0
KAHS 240154Z 03007KT 14/13 A30 RMK A01 T01380125  RH  092%=      5-min Rain = 0
KAHS 240155Z 02007KT 14/13 A30 RMK A01 T01380125  RH  092%=      5-min Rain = 0
KAHS 240156Z 02006KT 14/13 A30 RMK A01 T01380126  RH  092%=      5-min Rain = 0
KAHS 240157Z 02008KT 14/13 A30 RMK A01 T01380126  RH  093%=      5-min Rain = 0
KAHS 240158Z 02008KT 14/13 A30 RMK A01 T01370126  RH  093%=      5-min Rain = 0
KAHS 240159Z 03008KT 14/13 A30 RMK A01 T01370126  RH  093%=      5-min Rain = 0
KAHS 240200Z 02008KT 14/13 A30 RMK A01 T01370126  RH  093%=      5-min Rain = 0
KAHS 240201Z 03008KT 14/13 A2999 RMK A01 T01370126  RH  094%=      5-min Rain = 0
KAHS 240202Z 03008KT 14/13 A2999 RMK A01 T01360126  RH  094%=      5-min Rain = 0
KAHS 240203Z 03008KT 14/13 A2999 RMK A01 T01360126  RH  094%=      5-min Rain = 0
KAHS 240204Z 03009KT 14/13 A2999 RMK A01 T01360126  RH  094%=      5-min Rain = 0
KAHS 240205Z 03007KT 14/13 A2999 RMK A01 T01360126  RH  094%=      5-min Rain = 0
KAHS 240206Z 04007KT 14/13 A2999 RMK A01 T01360127  RH  094%=      5-min Rain = 0
KAHS 240207Z 04007KT 14/13 A2999 RMK A01 T01360127  RH  094%=      5-min Rain = 0
KAHS 240208Z 04008KT 14/13 A2999 RMK A01 T01360127  RH  094%=      5-min Rain = 0
KAHS 240209Z 03007KT 14/13 A30 RMK A01 T01350126  RH  094%=      5-min Rain = 0
KAHS 240210Z 04006KT 14/13 A30 RMK A01 T01350126  RH  094%=      5-min Rain = 0
KAHS 240211Z 03005KT 14/13 A30 RMK A01 T01360126  RH  094%=      5-min Rain = 0
KAHS 240212Z 04006KT 14/13 A30 RMK A01 T01360127  RH  094%=      5-min Rain = 0
KAHS 240213Z 03006KT 14/13 A30 RMK A01 T01360127  RH  094%=      5-min Rain = 0
KAHS 240214Z 03007KT 14/13 A30 RMK A01 T01360127  RH  094%=      5-min Rain = 0
KAHS 240215Z 03007KT 14/13 A30 RMK A01 T01360127  RH  094%=      5-min Rain = 0
KAHS 240216Z 03006KT 14/13 A30 RMK A01 T01360127  RH  094%=      5-min Rain = 0
KAHS 240217Z 04007KT 14/13 A30 RMK A01 T01360127  RH  094%=      5-min Rain = 0
KAHS 240218Z 02006KT 14/13 A3001 RMK A01 T01360127  RH  094%=      5-min Rain = 0
KAHS 240219Z 02006KT 14/13 A3001 RMK A01 T01360127  RH  094%=      5-min Rain = 0
KAHS 240220Z 03005KT 14/13 A3001 RMK A01 T01360127  RH  094%=      5-min Rain = 0
KAHS 240221Z 04006KT 14/13 A3001 RMK A01 T01360127  RH  094%=      5-min Rain = 0
KAHS 240222Z 04007KT 14/13 A3001 RMK A01 T01360127  RH  094%=      5-min Rain = 0
KAHS 240223Z 04008KT 14/13 A3001 RMK A01 T01360126  RH  094%=      5-min Rain = 0
KAHS 240224Z 04006KT 14/13 A3001 RMK A01 T01360126  RH  094%=      5-min Rain = 0
KAHS 240225Z 04007KT 14/13 A3001 RMK A01 T01360127  RH  094%=      5-min Rain = 0
KAHS 240226Z 04005KT 14/13 A3001 RMK A01 T01360127  RH  094%=      5-min Rain = 0
KAHS 240227Z 04004KT 14/13 A3001 RMK A01 T01360127  RH  094%=      5-min Rain = 0
KAHS 240228Z 04005KT 14/13 A3001 RMK A01 T01370127  RH  094%=      5-min Rain = 0
KAHS 240229Z 03005KT 14/13 A3001 RMK A01 T01370127  RH  094%=      5-min Rain = 0
KAHS 240230Z 03006KT 14/13 A3001 RMK A01 T01360127  RH  094%=      5-min Rain = 0
KAHS 240231Z 03005KT 14/13 A3001 RMK A01 T01360127  RH  094%=      5-min Rain = 0
KAHS 240232Z 03005KT 14/13 A3001 RMK A01 T01360126  RH  094%=      5-min Rain = 0
KAHS 240233Z 03005KT 14/13 A3001 RMK A01 T01370126  RH  094%=      5-min Rain = 0
KAHS 240234Z 03005KT 14/13 A30 RMK A01 T01360126  RH  094%=      5-min Rain = 0
KAHS 240235Z 03006KT 14/13 A30 RMK A01 T01360127  RH  094%=      5-min Rain = 0
KAHS 240236Z 02006KT 14/13 A30 RMK A01 T01370126  RH  094%=      5-min Rain = 0
KAHS 240237Z 02006KT 14/13 A30 RMK A01 T01370127  RH  094%=      5-min Rain = 0
KAHS 240238Z 03006KT 14/13 A30 RMK A01 T01370126  RH  093%=      5-min Rain = 0
KAHS 240239Z 03005KT 14/13 A30 RMK A01 T01370127  RH  093%=      5-min Rain = 0
KAHS 240240Z 03006KT 14/13 A30 RMK A01 T01370127  RH  093%=      5-min Rain = 0
KAHS 240241Z 03005KT 14/13 A30 RMK A01 T01370127  RH  093%=      5-min Rain = 0
KAHS 240242Z 03005KT 14/13 A30 RMK A01 T01370126  RH  093%=      5-min Rain = 0
KAHS 240243Z 03007KT 14/13 A30 RMK A01 T01370126  RH  093%=      5-min Rain = 0
KAHS 240244Z 04007KT 14/13 A30 RMK A01 T01370126  RH  093%=      5-min Rain = 0
KAHS 240245Z 03006KT 14/13 A30 RMK A01 T01370126  RH  093%=      5-min Rain = 0
KAHS 240246Z 03006KT 14/13 A30 RMK A01 T01370126  RH  093%=      5-min Rain = 0
KAHS 240247Z 03005KT 14/13 A30 RMK A01 T01370126  RH  093%=      5-min Rain = 0
KAHS 240248Z 04005KT 14/13 A30 RMK A01 T01380126  RH  093%=      5-min Rain = 0
KAHS 240249Z 04005KT 14/13 A30 RMK A01 T01380126  RH  093%=      5-min Rain = 0
KAHS 240250Z 03005KT 14/13 A30 RMK A01 T01380126  RH  093%=      5-min Rain = 0
KAHS 240251Z 04005KT 14/13 A30 RMK A01 T01380126  RH  093%=      5-min Rain = 0
KAHS 240252Z 04006KT 14/13 A30 RMK A01 T01380126  RH  093%=      5-min Rain = 0
KAHS 240253Z 04007KT 14/13 A30 RMK A01 T01380126  RH  092%=      5-min Rain = 0
KAHS 240254Z 04006KT 14/13 A30 RMK A01 T01380126  RH  092%=      5-min Rain = 0
KAHS 240255Z 04006KT 14/13 A30 RMK A01 T01380125  RH  092%=      5-min Rain = 0
KAHS 240256Z 05005KT 14/13 A30 RMK A01 T01380126  RH  092%=      5-min Rain = 0
KAHS 240257Z 05005KT 14/13 A30 RMK A01 T01380126  RH  092%=      5-min Rain = 0
KAHS 240258Z 04004KT 14/13 A3001 RMK A01 T01380125  RH  092%=      5-min Rain = 0
KAHS 240259Z 05003KT 14/13 A3001 RMK A01 T01390126  RH  092%=      5-min Rain = 0
KAHS 240300Z 05004KT 14/13 A3001 RMK A01 T01390126  RH  092%=      5-min Rain = 0
KAHS 240301Z 05003KT 14/13 A3001 RMK A01 T01380126  RH  092%=      5-min Rain = 0
KAHS 240302Z 05005KT 14/13 A3001 RMK A01 T01380126  RH  092%=      5-min Rain = 0
KAHS 240303Z 04006KT 14/13 A3001 RMK A01 T01390125  RH  092%=      5-min Rain = 0
KAHS 240304Z 05005KT 14/13 A3001 RMK A01 T01390125  RH  092%=      5-min Rain = 0
KAHS 240305Z 07004KT 14/13 A3001 RMK A01 T01380125  RH  092%=      5-min Rain = 0
KAHS 240306Z 05004KT 14/13 A3001 RMK A01 T01380125  RH  091%=      5-min Rain = 0
KAHS 240307Z 06005KT 14/13 A3001 RMK A01 T01390125  RH  091%=      5-min Rain = 0
KAHS 240308Z 04005KT 14/13 A3001 RMK A01 T01390125  RH  091%=      5-min Rain = 0
KAHS 240309Z 04004KT 14/13 A3001 RMK A01 T01390125  RH  091%=      5-min Rain = 0
KAHS 240310Z 02005KT 14/13 A3001 RMK A01 T01390125  RH  091%=      5-min Rain = 0
KAHS 240311Z 03005KT 14/13 A3001 RMK A01 T01390125  RH  091%=      5-min Rain = 0
KAHS 240312Z 02006KT 14/13 A3001 RMK A01 T01390126  RH  092%=      5-min Rain = 0
KAHS 240313Z 02007KT 14/13 A3001 RMK A01 T01390126  RH  091%=      5-min Rain = 0
KAHS 240314Z 03008KT 14/13 A3001 RMK A01 T01390125  RH  091%=      5-min Rain = 0
KAHS 240315Z 02006KT 14/12 A30 RMK A01 T01380124  RH  091%=      5-min Rain = 0
KAHS 240316Z 02006KT 14/13 A30 RMK A01 T01390125  RH  091%=      5-min Rain = 0
KAHS 240317Z 02006KT 14/13 A30 RMK A01 T01390125  RH  091%=      5-min Rain = 0
KAHS 240318Z 01006KT 14/13 A30 RMK A01 T01390125  RH  091%=      5-min Rain = 0
KAHS 240319Z 01007KT 14/13 A30 RMK A01 T01390125  RH  091%=      5-min Rain = 0
KAHS 240320Z 02006KT 14/13 A30 RMK A01 T01380125  RH  091%=      5-min Rain = 0
KAHS 240321Z 02007KT 14/13 A30 RMK A01 T01380125  RH  092%=      5-min Rain = 0
KAHS 240322Z 03007KT 14/13 A30 RMK A01 T01380125  RH  092%=      5-min Rain = 0
KAHS 240323Z 03006KT 14/13 A2999 RMK A01 T01380125  RH  092%=      5-min Rain = 0
KAHS 240324Z 03007KT 14/13 A2999 RMK A01 T01380125  RH  092%=      5-min Rain = 0
KAHS 240325Z 03009KT 14/13 A2999 RMK A01 T01380125  RH  092%=      5-min Rain = 0
KAHS 240326Z 03008KT 14/13 A2999 RMK A01 T01380125  RH  092%=      5-min Rain = 0
KAHS 240327Z 02009KT 14/12 A2999 RMK A01 T01370124  RH  092%=      5-min Rain = 0
KAHS 240328Z 02007KT 14/12 A2999 RMK A01 T01380124  RH  091%=      5-min Rain = 0
KAHS 240329Z 02005KT 14/12 A2999 RMK A01 T01380124  RH  091%=      5-min Rain = 0
KAHS 240330Z 01004KT 14/12 A30 RMK A01 T01380124  RH  092%=      5-min Rain = 0
KAHS 240331Z 03006KT 14/12 A30 RMK A01 T01370124  RH  092%=      5-min Rain = 0
KAHS 240332Z 02007KT 14/12 A3001 RMK A01 T01370124  RH  092%=      5-min Rain = 0
KAHS 240333Z 03004KT 14/12 A3001 RMK A01 T01370124  RH  091%=      5-min Rain = 0
KAHS 240334Z 03005KT 14/12 A3001 RMK A01 T01380124  RH  091%=      5-min Rain = 0
KAHS 240335Z 03006KT 14/12 A3001 RMK A01 T01370123  RH  091%=      5-min Rain = 0
KAHS 240336Z 04004KT 14/12 A3001 RMK A01 T01380124  RH  091%=      5-min Rain = 0
KAHS 240337Z 05004KT 14/12 A3001 RMK A01 T01380124  RH  091%=      5-min Rain = 0
KAHS 240338Z 05006KT 14/12 A3002 RMK A01 T01380124  RH  091%=      5-min Rain = 0
KAHS 240339Z 06006KT 14/12 A3002 RMK A01 T01380124  RH  091%=      5-min Rain = 0
KAHS 240340Z 06005KT 14/12 A3002 RMK A01 T01380124  RH  091%=      5-min Rain = 0
KAHS 240341Z 06003KT 14/12 A3002 RMK A01 T01380124  RH  091%=      5-min Rain = 0
KAHS 240342Z 07006KT 14/12 A3002 RMK A01 T01380124  RH  091%=      5-min Rain = 0
KAHS 240343Z 07006KT 14/12 A3002 RMK A01 T01370124  RH  091%=      5-min Rain = 0
KAHS 240344Z 06008KT 14/12 A3002 RMK A01 T01370124  RH  091%=      5-min Rain = 0
KAHS 240345Z 06007KT 14/12 A3002 RMK A01 T01380124  RH  091%=      5-min Rain = 0
KAHS 240346Z 06009KT 14/12 A3002 RMK A01 T01380124  RH  091%=      5-min Rain = 0
KAHS 240347Z 06008KT 14/12 A3002 RMK A01 T01380124  RH  091%=      5-min Rain = 0
KAHS 240348Z 05007KT 14/12 A3002 RMK A01 T01380124  RH  091%=      5-min Rain = 0
KAHS 240349Z 04004KT 14/12 A3003 RMK A01 T01380124  RH  092%=      5-min Rain = 0
KAHS 240350Z 03005KT 14/12 A3003 RMK A01 T01380124  RH  092%=      5-min Rain = 0
KAHS 240351Z 02004KT 14/12 A3004 RMK A01 T01380124  RH  092%=      5-min Rain = 0
KAHS 240352Z 03004KT 14/13 A3004 RMK A01 T01380125  RH  092%=      5-min Rain = 0
KAHS 240353Z 01003KT 14/13 A3004 RMK A01 T01380125  RH  092%=      5-min Rain = 0
KAHS 240354Z 01003KT 14/13 A3004 RMK A01 T01380125  RH  092%=      5-min Rain = 0
KAHS 240355Z 02003KT 14/13 A3004 RMK A01 T01390125  RH  092%=      5-min Rain = 0
KAHS 240356Z 02003KT 14/13 A3004 RMK A01 T01380125  RH  092%=      5-min Rain = 0
KAHS 240357Z 02002KT 14/13 A3004 RMK A01 T01380125  RH  092%=      5-min Rain = 0
KAHS 240358Z 03004KT 14/13 A3004 RMK A01 T01380125  RH  092%=      5-min Rain = 0
KAHS 240359Z 02003KT 14/13 A3004 RMK A01 T01390126  RH  092%=      5-min Rain = 0
KAHS 240400Z 01002KT 14/13 A3005 RMK A01 T01390126  RH  092%=      5-min Rain = 0
KAHS 240401Z 03003KT 14/13 A3005 RMK A01 T01390126  RH  092%=      5-min Rain = 0
KAHS 240402Z 02002KT 14/13 A3005 RMK A01 T01380125  RH  092%=      5-min Rain = 0
KAHS 240403Z 04003KT 14/13 A3005 RMK A01 T01380125  RH  092%=      5-min Rain = 0
KAHS 240404Z 05003KT 14/13 A3005 RMK A01 T01380125  RH  092%=      5-min Rain = 0
KAHS 240405Z 05003KT 14/13 A3005 RMK A01 T01380125  RH  092%=      5-min Rain = 0
KAHS 240406Z 06002KT 14/13 A3005 RMK A01 T01390125  RH  091%=      5-min Rain = 0
KAHS 240407Z 05002KT 14/13 A3005 RMK A01 T01390125  RH  091%=      5-min Rain = 0
KAHS 240408Z 04002KT 14/13 A3005 RMK A01 T01390125  RH  091%=      5-min Rain = 0
KAHS 240409Z 04002KT 14/13 A3005 RMK A01 T01390125  RH  091%=      5-min Rain = 0
KAHS 240410Z 02002KT 14/13 A3005 RMK A01 T01390125  RH  091%=      5-min Rain = 0
KAHS 240411Z 00003KT 14/13 A3005 RMK A01 T01390125  RH  091%=      5-min Rain = 0
KAHS 240412Z 00002KT 14/13 A3005 RMK A01 T01390125  RH  091%=      5-min Rain = 0
KAHS 240413Z 00003KT 14/13 A3005 RMK A01 T01390125  RH  091%=      5-min Rain = 0
KAHS 240414Z 01003KT 14/13 A3005 RMK A01 T01390126  RH  092%=      5-min Rain = 0
KAHS 240415Z 02003KT 14/13 A3005 RMK A01 T01390126  RH  092%=      5-min Rain = 0
KAHS 240416Z 03004KT 14/13 A3005 RMK A01 T01390126  RH  092%=      5-min Rain = 0
KAHS 240417Z 04004KT 14/13 A3005 RMK A01 T01390126  RH  092%=      5-min Rain = 0
KAHS 240418Z 04004KT 14/13 A3005 RMK A01 T01390126  RH  092%=      5-min Rain = 0
KAHS 240419Z 04002KT 14/13 A3005 RMK A01 T01380125  RH  092%=      5-min Rain = 0
KAHS 240420Z 03002KT 14/13 A3005 RMK A01 T01390126  RH  092%=      5-min Rain = 0
KAHS 240421Z 03002KT 14/13 A3005 RMK A01 T01390126  RH  092%=      5-min Rain = 0
KAHS 240422Z 02003KT 14/13 A3005 RMK A01 T01380126  RH  092%=      5-min Rain = 0
KAHS 240423Z 01003KT 14/13 A3005 RMK A01 T01380125  RH  092%=      5-min Rain = 0
KAHS 240424Z 01002KT 14/13 A3005 RMK A01 T01380125  RH  092%=      5-min Rain = 0
KAHS 240425Z 00002KT 14/13 A3005 RMK A01 T01380125  RH  092%=      5-min Rain = 0
KAHS 240426Z 36003KT 14/13 A3005 RMK A01 T01380125  RH  092%=      5-min Rain = 0
KAHS 240427Z 35002KT 14/13 A3005 RMK A01 T01380126  RH  092%=      5-min Rain = 0
KAHS 240428Z 35003KT 14/13 A3005 RMK A01 T01390126  RH  092%=      5-min Rain = 0
KAHS 240429Z 36004KT 14/13 A3004 RMK A01 T01380126  RH  092%=      5-min Rain = 0
KAHS 240430Z 00003KT 14/13 A3004 RMK A01 T01380126  RH  092%=      5-min Rain = 0
KAHS 240431Z 01004KT 14/13 A3004 RMK A01 T01380126  RH  092%=      5-min Rain = 0
KAHS 240432Z 02004KT 14/13 A3003 RMK A01 T01380126  RH  092%=      5-min Rain = 0
KAHS 240433Z 03003KT 14/13 A3003 RMK A01 T01380126  RH  092%=      5-min Rain = 0
KAHS 240434Z 04004KT 14/13 A3003 RMK A01 T01380126  RH  092%=      5-min Rain = 0
KAHS 240435Z 05004KT 14/13 A3003 RMK A01 T01380126  RH  092%=      5-min Rain = 0
KAHS 240436Z 06004KT 14/13 A3002 RMK A01 T01370125  RH  092%=      5-min Rain = 0
KAHS 240437Z 05004KT 14/13 A3002 RMK A01 T01370125  RH  093%=      5-min Rain = 0
KAHS 240438Z 05004KT 14/13 A3002 RMK A01 T01370126  RH  093%=      5-min Rain = 0.01
KAHS 240439Z 06004KT 14/13 A3002 RMK A01 T01370125  RH  093%=      5-min Rain = 0
KAHS 240440Z 05005KT 14/13 A3001 RMK A01 T01360126  RH  093%=      5-min Rain = 0
KAHS 240441Z 05006KT 14/13 A3001 RMK A01 T01360126  RH  093%=      5-min Rain = 0
KAHS 240442Z 05007KT 14/13 A30 RMK A01 T01360126  RH  094%=      5-min Rain = 0
KAHS 240443Z 06008KT 14/13 A30 RMK A01 T01360126  RH  094%=      5-min Rain = 0
KAHS 240444Z 06009KT 14/13 A2999 RMK A01 T01350126  RH  094%=      5-min Rain = 0
KAHS 240445Z 06009KT 14/13 A2999 RMK A01 T01350126  RH  094%=      5-min Rain = 0
KAHS 240446Z 06010KT 14/13 A2998 RMK A01 T01350126  RH  094%=      5-min Rain = 0
KAHS 240447Z 06009KT 14/13 A2998 RMK A01 T01350126  RH  095%=      5-min Rain = 0
KAHS 240448Z 06008KT 14/13 A2998 RMK A01 T01350126  RH  095%=      5-min Rain = 0
KAHS 240449Z 07007KT 14/13 A2998 RMK A01 T01350126  RH  095%=      5-min Rain = 0
KAHS 240450Z 07007KT 14/13 A2998 RMK A01 T01350126  RH  095%=      5-min Rain = 0
KAHS 240451Z 08007KT 13/13 A2998 RMK A01 T01340126  RH  095%=      5-min Rain = 0
KAHS 240452Z 08007KT 13/13 A2998 RMK A01 T01340126  RH  095%=      5-min Rain = 0
KAHS 240453Z 09007KT 13/13 A2998 RMK A01 T01340126  RH  095%=      5-min Rain = 0
KAHS 240454Z 08008KT 13/13 A2998 RMK A01 T01340126  RH  095%=      5-min Rain = 0
KAHS 240455Z 09008KT 13/13 A2997 RMK A01 T01340126  RH  095%=      5-min Rain = 0
KAHS 240456Z 08008KT 13/13 A2998 RMK A01 T01340126  RH  095%=      5-min Rain = 0
KAHS 240457Z 07006KT 13/13 A2998 RMK A01 T01340126  RH  095%=      5-min Rain = 0
KAHS 240458Z 07006KT 13/13 A2998 RMK A01 T01340126  RH  095%=      5-min Rain = 0
KAHS 240459Z 05005KT 13/13 A2999 RMK A01 T01340126  RH  095%=      5-min Rain = 0

Page generated in 0.1222 seconds.